<?xml version="1.0" encoding="UTF-8" standalone="no" ?>
<gpx xmlns="http://www.topografix.com/GPX/1/1" xmlns:xsi="http://www.w3.org/2001/XMLSchema-instance" xsi:schemaLocation="http://www.topografix.com/GPX/1/1 http://www.topografix.com/GPX/1/1/gpx.xsd" version="1.1" creator="VisuGPX - https://www.visugpx.com">
  <metadata>
    <name>Boucle de Lurs</name>
  </metadata>
  <trk>
    <name><![CDATA[boucle lurs]]></name>
    <extensions>
      <line xmlns="http://www.topografix.com/GPX/gpx_style/0/2">
        <color>0000FF</color>
        <width>4</width>
      </line>
    </extensions>
    <trkseg>
      <trkpt lat="43.96665" lon="5.88745">
        <ele>555.78</ele>
        <time>2017-03-15T13:47:16Z</time>
      </trkpt>
      <trkpt lat="43.96665" lon="5.88746">
        <ele>555.78</ele>
        <time>2017-03-15T13:47:17Z</time>
      </trkpt>
      <trkpt lat="43.96675" lon="5.88765">
        <ele>556.26</ele>
        <time>2017-03-15T13:47:35Z</time>
      </trkpt>
      <trkpt lat="43.96678" lon="5.88771">
        <ele>556.26</ele>
        <time>2017-03-15T13:47:40Z</time>
      </trkpt>
      <trkpt lat="43.96686" lon="5.88794">
        <ele>557.7</ele>
        <time>2017-03-15T13:48:01Z</time>
      </trkpt>
      <trkpt lat="43.96686" lon="5.88797">
        <ele>557.7</ele>
        <time>2017-03-15T13:48:16Z</time>
      </trkpt>
      <trkpt lat="43.96689" lon="5.88797">
        <ele>557.7</ele>
        <time>2017-03-15T13:48:43Z</time>
      </trkpt>
      <trkpt lat="43.96696" lon="5.88797">
        <ele>557.7</ele>
        <time>2017-03-15T13:48:59Z</time>
      </trkpt>
      <trkpt lat="43.96694" lon="5.88794">
        <ele>557.7</ele>
        <time>2017-03-15T13:49:16Z</time>
      </trkpt>
      <trkpt lat="43.96692" lon="5.88797">
        <ele>557.22</ele>
        <time>2017-03-15T13:49:33Z</time>
      </trkpt>
      <trkpt lat="43.96694" lon="5.888">
        <ele>557.22</ele>
        <time>2017-03-15T13:49:48Z</time>
      </trkpt>
      <trkpt lat="43.96693" lon="5.88802">
        <ele>557.22</ele>
        <time>2017-03-15T13:50:10Z</time>
      </trkpt>
      <trkpt lat="43.96691" lon="5.88802">
        <ele>557.22</ele>
        <time>2017-03-15T13:50:12Z</time>
      </trkpt>
      <trkpt lat="43.96684" lon="5.88798">
        <ele>557.22</ele>
        <time>2017-03-15T13:50:30Z</time>
      </trkpt>
      <trkpt lat="43.96684" lon="5.88801">
        <ele>557.22</ele>
        <time>2017-03-15T13:51:04Z</time>
      </trkpt>
      <trkpt lat="43.96685" lon="5.88799">
        <ele>557.22</ele>
        <time>2017-03-15T13:51:28Z</time>
      </trkpt>
      <trkpt lat="43.96683" lon="5.888">
        <ele>557.22</ele>
        <time>2017-03-15T13:52:05Z</time>
      </trkpt>
      <trkpt lat="43.96686" lon="5.88796">
        <ele>557.22</ele>
        <time>2017-03-15T13:52:31Z</time>
      </trkpt>
      <trkpt lat="43.96684" lon="5.88798">
        <ele>557.22</ele>
        <time>2017-03-15T13:52:45Z</time>
      </trkpt>
      <trkpt lat="43.9668" lon="5.88801">
        <ele>557.22</ele>
        <time>2017-03-15T13:53:19Z</time>
      </trkpt>
      <trkpt lat="43.96682" lon="5.88803">
        <ele>557.22</ele>
        <time>2017-03-15T13:53:51Z</time>
      </trkpt>
      <trkpt lat="43.96684" lon="5.88803">
        <ele>557.22</ele>
        <time>2017-03-15T13:54:29Z</time>
      </trkpt>
      <trkpt lat="43.96682" lon="5.88802">
        <ele>557.22</ele>
        <time>2017-03-15T13:55:00Z</time>
      </trkpt>
      <trkpt lat="43.96677" lon="5.88799">
        <ele>557.22</ele>
        <time>2017-03-15T13:55:30Z</time>
      </trkpt>
      <trkpt lat="43.96679" lon="5.88798">
        <ele>557.7</ele>
        <time>2017-03-15T13:56:08Z</time>
      </trkpt>
      <trkpt lat="43.96682" lon="5.88799">
        <ele>557.22</ele>
        <time>2017-03-15T13:56:37Z</time>
      </trkpt>
      <trkpt lat="43.96689" lon="5.88793">
        <ele>557.22</ele>
        <time>2017-03-15T13:56:53Z</time>
      </trkpt>
      <trkpt lat="43.96689" lon="5.88796">
        <ele>557.7</ele>
        <time>2017-03-15T13:57:21Z</time>
      </trkpt>
      <trkpt lat="43.9669" lon="5.88796">
        <ele>557.7</ele>
        <time>2017-03-15T13:57:42Z</time>
      </trkpt>
      <trkpt lat="43.96689" lon="5.88796">
        <ele>557.7</ele>
        <time>2017-03-15T13:58:02Z</time>
      </trkpt>
      <trkpt lat="43.96691" lon="5.88798">
        <ele>558.18</ele>
        <time>2017-03-15T13:58:39Z</time>
      </trkpt>
      <trkpt lat="43.96691" lon="5.88798">
        <ele>558.18</ele>
        <time>2017-03-15T13:59:07Z</time>
      </trkpt>
      <trkpt lat="43.96687" lon="5.88794">
        <ele>558.18</ele>
        <time>2017-03-15T13:59:52Z</time>
      </trkpt>
      <trkpt lat="43.9669" lon="5.88793">
        <ele>558.18</ele>
        <time>2017-03-15T14:00:32Z</time>
      </trkpt>
      <trkpt lat="43.9669" lon="5.88796">
        <ele>558.18</ele>
        <time>2017-03-15T14:00:56Z</time>
      </trkpt>
      <trkpt lat="43.96694" lon="5.88807">
        <ele>558.18</ele>
        <time>2017-03-15T14:01:05Z</time>
      </trkpt>
      <trkpt lat="43.96699" lon="5.88813">
        <ele>559.62</ele>
        <time>2017-03-15T14:01:11Z</time>
      </trkpt>
      <trkpt lat="43.96717" lon="5.88834">
        <ele>561.55</ele>
        <time>2017-03-15T14:01:32Z</time>
      </trkpt>
      <trkpt lat="43.96727" lon="5.88846">
        <ele>562.51</ele>
        <time>2017-03-15T14:01:49Z</time>
      </trkpt>
      <trkpt lat="43.9674" lon="5.88861">
        <ele>563.95</ele>
        <time>2017-03-15T14:02:06Z</time>
      </trkpt>
      <trkpt lat="43.96745" lon="5.88867">
        <ele>564.43</ele>
        <time>2017-03-15T14:02:13Z</time>
      </trkpt>
      <trkpt lat="43.96759" lon="5.88879">
        <ele>567.8</ele>
        <time>2017-03-15T14:02:31Z</time>
      </trkpt>
      <trkpt lat="43.96774" lon="5.88889">
        <ele>570.2</ele>
        <time>2017-03-15T14:02:49Z</time>
      </trkpt>
      <trkpt lat="43.96788" lon="5.88893">
        <ele>569.24</ele>
        <time>2017-03-15T14:03:08Z</time>
      </trkpt>
      <trkpt lat="43.96789" lon="5.88893">
        <ele>568.28</ele>
        <time>2017-03-15T14:03:10Z</time>
      </trkpt>
      <trkpt lat="43.96791" lon="5.88892">
        <ele>568.28</ele>
        <time>2017-03-15T14:03:12Z</time>
      </trkpt>
      <trkpt lat="43.96807" lon="5.88892">
        <ele>566.35</ele>
        <time>2017-03-15T14:03:32Z</time>
      </trkpt>
      <trkpt lat="43.96819" lon="5.88904">
        <ele>566.83</ele>
        <time>2017-03-15T14:03:51Z</time>
      </trkpt>
      <trkpt lat="43.96835" lon="5.88923">
        <ele>566.83</ele>
        <time>2017-03-15T14:04:12Z</time>
      </trkpt>
      <trkpt lat="43.96844" lon="5.88934">
        <ele>568.76</ele>
        <time>2017-03-15T14:04:29Z</time>
      </trkpt>
      <trkpt lat="43.96855" lon="5.88948">
        <ele>570.68</ele>
        <time>2017-03-15T14:04:47Z</time>
      </trkpt>
      <trkpt lat="43.96862" lon="5.88963">
        <ele>571.16</ele>
        <time>2017-03-15T14:05:05Z</time>
      </trkpt>
      <trkpt lat="43.96861" lon="5.88983">
        <ele>571.64</ele>
        <time>2017-03-15T14:05:22Z</time>
      </trkpt>
      <trkpt lat="43.96861" lon="5.88967">
        <ele>574.53</ele>
        <time>2017-03-15T14:05:41Z</time>
      </trkpt>
      <trkpt lat="43.96868" lon="5.88962">
        <ele>576.93</ele>
        <time>2017-03-15T14:05:56Z</time>
      </trkpt>
      <trkpt lat="43.96867" lon="5.88963">
        <ele>577.41</ele>
        <time>2017-03-15T14:06:13Z</time>
      </trkpt>
      <trkpt lat="43.96874" lon="5.88964">
        <ele>577.41</ele>
        <time>2017-03-15T14:06:30Z</time>
      </trkpt>
      <trkpt lat="43.96875" lon="5.88964">
        <ele>577.41</ele>
        <time>2017-03-15T14:06:31Z</time>
      </trkpt>
      <trkpt lat="43.96877" lon="5.88964">
        <ele>578.85</ele>
        <time>2017-03-15T14:06:46Z</time>
      </trkpt>
      <trkpt lat="43.96875" lon="5.88967">
        <ele>576.93</ele>
        <time>2017-03-15T14:06:59Z</time>
      </trkpt>
      <trkpt lat="43.96877" lon="5.88963">
        <ele>577.89</ele>
        <time>2017-03-15T14:07:12Z</time>
      </trkpt>
      <trkpt lat="43.96891" lon="5.88966">
        <ele>579.33</ele>
        <time>2017-03-15T14:07:32Z</time>
      </trkpt>
      <trkpt lat="43.96895" lon="5.88963">
        <ele>579.81</ele>
        <time>2017-03-15T14:07:56Z</time>
      </trkpt>
      <trkpt lat="43.96909" lon="5.88957">
        <ele>580.29</ele>
        <time>2017-03-15T14:08:21Z</time>
      </trkpt>
      <trkpt lat="43.96928" lon="5.88948">
        <ele>580.77</ele>
        <time>2017-03-15T14:08:42Z</time>
      </trkpt>
      <trkpt lat="43.96933" lon="5.88941">
        <ele>579.81</ele>
        <time>2017-03-15T14:08:51Z</time>
      </trkpt>
      <trkpt lat="43.9694" lon="5.88937">
        <ele>579.81</ele>
        <time>2017-03-15T14:09:00Z</time>
      </trkpt>
      <trkpt lat="43.96951" lon="5.88942">
        <ele>581.25</ele>
        <time>2017-03-15T14:09:13Z</time>
      </trkpt>
      <trkpt lat="43.96964" lon="5.88942">
        <ele>583.66</ele>
        <time>2017-03-15T14:09:32Z</time>
      </trkpt>
      <trkpt lat="43.96972" lon="5.88938">
        <ele>585.1</ele>
        <time>2017-03-15T14:09:51Z</time>
      </trkpt>
      <trkpt lat="43.96972" lon="5.88942">
        <ele>585.58</ele>
        <time>2017-03-15T14:10:24Z</time>
      </trkpt>
      <trkpt lat="43.9698" lon="5.88941">
        <ele>585.58</ele>
        <time>2017-03-15T14:10:46Z</time>
      </trkpt>
      <trkpt lat="43.96987" lon="5.8895">
        <ele>587.5</ele>
        <time>2017-03-15T14:11:04Z</time>
      </trkpt>
      <trkpt lat="43.97006" lon="5.88939">
        <ele>589.43</ele>
        <time>2017-03-15T14:11:24Z</time>
      </trkpt>
      <trkpt lat="43.97014" lon="5.88936">
        <ele>590.87</ele>
        <time>2017-03-15T14:11:41Z</time>
      </trkpt>
      <trkpt lat="43.97013" lon="5.88942">
        <ele>590.87</ele>
        <time>2017-03-15T14:12:01Z</time>
      </trkpt>
      <trkpt lat="43.97008" lon="5.88932">
        <ele>590.87</ele>
        <time>2017-03-15T14:12:19Z</time>
      </trkpt>
      <trkpt lat="43.97016" lon="5.88929">
        <ele>589.43</ele>
        <time>2017-03-15T14:12:35Z</time>
      </trkpt>
      <trkpt lat="43.97021" lon="5.88924">
        <ele>589.43</ele>
        <time>2017-03-15T14:12:51Z</time>
      </trkpt>
      <trkpt lat="43.97022" lon="5.88926">
        <ele>588.46</ele>
        <time>2017-03-15T14:13:16Z</time>
      </trkpt>
      <trkpt lat="43.97024" lon="5.88927">
        <ele>587.98</ele>
        <time>2017-03-15T14:13:41Z</time>
      </trkpt>
      <trkpt lat="43.97028" lon="5.88929">
        <ele>587.5</ele>
        <time>2017-03-15T14:13:58Z</time>
      </trkpt>
      <trkpt lat="43.97033" lon="5.88934">
        <ele>587.5</ele>
        <time>2017-03-15T14:14:19Z</time>
      </trkpt>
      <trkpt lat="43.9705" lon="5.88926">
        <ele>586.54</ele>
        <time>2017-03-15T14:14:42Z</time>
      </trkpt>
      <trkpt lat="43.97062" lon="5.88929">
        <ele>586.54</ele>
        <time>2017-03-15T14:15:03Z</time>
      </trkpt>
      <trkpt lat="43.97071" lon="5.88924">
        <ele>587.02</ele>
        <time>2017-03-15T14:15:30Z</time>
      </trkpt>
      <trkpt lat="43.97076" lon="5.88928">
        <ele>587.02</ele>
        <time>2017-03-15T14:15:41Z</time>
      </trkpt>
      <trkpt lat="43.97085" lon="5.88935">
        <ele>587.02</ele>
        <time>2017-03-15T14:15:58Z</time>
      </trkpt>
      <trkpt lat="43.97091" lon="5.88941">
        <ele>586.54</ele>
        <time>2017-03-15T14:16:15Z</time>
      </trkpt>
      <trkpt lat="43.97098" lon="5.88947">
        <ele>586.54</ele>
        <time>2017-03-15T14:16:41Z</time>
      </trkpt>
      <trkpt lat="43.97119" lon="5.88954">
        <ele>586.54</ele>
        <time>2017-03-15T14:17:02Z</time>
      </trkpt>
      <trkpt lat="43.97132" lon="5.88956">
        <ele>586.54</ele>
        <time>2017-03-15T14:17:19Z</time>
      </trkpt>
      <trkpt lat="43.97145" lon="5.88955">
        <ele>586.54</ele>
        <time>2017-03-15T14:17:32Z</time>
      </trkpt>
      <trkpt lat="43.97157" lon="5.88954">
        <ele>586.06</ele>
        <time>2017-03-15T14:17:49Z</time>
      </trkpt>
      <trkpt lat="43.9717" lon="5.88953">
        <ele>586.06</ele>
        <time>2017-03-15T14:18:06Z</time>
      </trkpt>
      <trkpt lat="43.97174" lon="5.88952">
        <ele>586.06</ele>
        <time>2017-03-15T14:18:21Z</time>
      </trkpt>
      <trkpt lat="43.97189" lon="5.88952">
        <ele>586.06</ele>
        <time>2017-03-15T14:18:39Z</time>
      </trkpt>
      <trkpt lat="43.97204" lon="5.88952">
        <ele>586.06</ele>
        <time>2017-03-15T14:18:54Z</time>
      </trkpt>
      <trkpt lat="43.97225" lon="5.8895">
        <ele>587.02</ele>
        <time>2017-03-15T14:19:13Z</time>
      </trkpt>
      <trkpt lat="43.97239" lon="5.8895">
        <ele>587.02</ele>
        <time>2017-03-15T14:19:30Z</time>
      </trkpt>
      <trkpt lat="43.97257" lon="5.88951">
        <ele>587.02</ele>
        <time>2017-03-15T14:19:48Z</time>
      </trkpt>
      <trkpt lat="43.97267" lon="5.88952">
        <ele>587.02</ele>
        <time>2017-03-15T14:20:05Z</time>
      </trkpt>
      <trkpt lat="43.97281" lon="5.88956">
        <ele>587.02</ele>
        <time>2017-03-15T14:20:22Z</time>
      </trkpt>
      <trkpt lat="43.97293" lon="5.88964">
        <ele>587.5</ele>
        <time>2017-03-15T14:20:37Z</time>
      </trkpt>
      <trkpt lat="43.97308" lon="5.88977">
        <ele>588.95</ele>
        <time>2017-03-15T14:20:55Z</time>
      </trkpt>
      <trkpt lat="43.97325" lon="5.8899">
        <ele>590.39</ele>
        <time>2017-03-15T14:21:15Z</time>
      </trkpt>
      <trkpt lat="43.97332" lon="5.88999">
        <ele>592.79</ele>
        <time>2017-03-15T14:21:30Z</time>
      </trkpt>
      <trkpt lat="43.97337" lon="5.89003">
        <ele>593.75</ele>
        <time>2017-03-15T14:21:48Z</time>
      </trkpt>
      <trkpt lat="43.9733" lon="5.88996">
        <ele>593.75</ele>
        <time>2017-03-15T14:22:12Z</time>
      </trkpt>
      <trkpt lat="43.9733" lon="5.88999">
        <ele>593.75</ele>
        <time>2017-03-15T14:22:33Z</time>
      </trkpt>
      <trkpt lat="43.97335" lon="5.89003">
        <ele>594.23</ele>
        <time>2017-03-15T14:23:03Z</time>
      </trkpt>
      <trkpt lat="43.97334" lon="5.89003">
        <ele>594.23</ele>
        <time>2017-03-15T14:23:24Z</time>
      </trkpt>
      <trkpt lat="43.97334" lon="5.89004">
        <ele>594.23</ele>
        <time>2017-03-15T14:23:48Z</time>
      </trkpt>
      <trkpt lat="43.97333" lon="5.89005">
        <ele>592.79</ele>
        <time>2017-03-15T14:24:00Z</time>
      </trkpt>
      <trkpt lat="43.9733" lon="5.89001">
        <ele>592.79</ele>
        <time>2017-03-15T14:24:20Z</time>
      </trkpt>
      <trkpt lat="43.97341" lon="5.88993">
        <ele>590.87</ele>
        <time>2017-03-15T14:24:36Z</time>
      </trkpt>
      <trkpt lat="43.97341" lon="5.88985">
        <ele>588.95</ele>
        <time>2017-03-15T14:24:49Z</time>
      </trkpt>
      <trkpt lat="43.9735" lon="5.88985">
        <ele>589.43</ele>
        <time>2017-03-15T14:25:04Z</time>
      </trkpt>
      <trkpt lat="43.97359" lon="5.88988">
        <ele>590.39</ele>
        <time>2017-03-15T14:25:20Z</time>
      </trkpt>
      <trkpt lat="43.97372" lon="5.88993">
        <ele>590.39</ele>
        <time>2017-03-15T14:25:36Z</time>
      </trkpt>
      <trkpt lat="43.97387" lon="5.89003">
        <ele>587.98</ele>
        <time>2017-03-15T14:25:55Z</time>
      </trkpt>
      <trkpt lat="43.974" lon="5.89012">
        <ele>588.46</ele>
        <time>2017-03-15T14:26:11Z</time>
      </trkpt>
      <trkpt lat="43.97414" lon="5.89019">
        <ele>587.02</ele>
        <time>2017-03-15T14:26:30Z</time>
      </trkpt>
      <trkpt lat="43.9743" lon="5.89019">
        <ele>586.54</ele>
        <time>2017-03-15T14:26:45Z</time>
      </trkpt>
      <trkpt lat="43.97445" lon="5.89022">
        <ele>586.06</ele>
        <time>2017-03-15T14:27:02Z</time>
      </trkpt>
      <trkpt lat="43.97449" lon="5.89022">
        <ele>586.06</ele>
        <time>2017-03-15T14:27:09Z</time>
      </trkpt>
      <trkpt lat="43.97458" lon="5.89027">
        <ele>586.06</ele>
        <time>2017-03-15T14:27:23Z</time>
      </trkpt>
      <trkpt lat="43.97474" lon="5.89034">
        <ele>586.06</ele>
        <time>2017-03-15T14:27:42Z</time>
      </trkpt>
      <trkpt lat="43.97475" lon="5.89036">
        <ele>587.5</ele>
        <time>2017-03-15T14:27:44Z</time>
      </trkpt>
      <trkpt lat="43.97488" lon="5.89044">
        <ele>587.5</ele>
        <time>2017-03-15T14:28:01Z</time>
      </trkpt>
      <trkpt lat="43.97506" lon="5.89052">
        <ele>588.46</ele>
        <time>2017-03-15T14:28:20Z</time>
      </trkpt>
      <trkpt lat="43.97524" lon="5.89056">
        <ele>586.54</ele>
        <time>2017-03-15T14:28:38Z</time>
      </trkpt>
      <trkpt lat="43.97538" lon="5.89058">
        <ele>586.06</ele>
        <time>2017-03-15T14:28:56Z</time>
      </trkpt>
      <trkpt lat="43.97548" lon="5.89066">
        <ele>586.06</ele>
        <time>2017-03-15T14:29:16Z</time>
      </trkpt>
      <trkpt lat="43.97568" lon="5.89073">
        <ele>585.58</ele>
        <time>2017-03-15T14:29:36Z</time>
      </trkpt>
      <trkpt lat="43.97583" lon="5.89078">
        <ele>584.62</ele>
        <time>2017-03-15T14:29:53Z</time>
      </trkpt>
      <trkpt lat="43.97601" lon="5.89085">
        <ele>584.14</ele>
        <time>2017-03-15T14:30:11Z</time>
      </trkpt>
      <trkpt lat="43.97622" lon="5.89095">
        <ele>583.66</ele>
        <time>2017-03-15T14:30:31Z</time>
      </trkpt>
      <trkpt lat="43.97628" lon="5.89098">
        <ele>585.1</ele>
        <time>2017-03-15T14:30:38Z</time>
      </trkpt>
      <trkpt lat="43.97645" lon="5.89105">
        <ele>586.06</ele>
        <time>2017-03-15T14:30:58Z</time>
      </trkpt>
      <trkpt lat="43.97665" lon="5.89111">
        <ele>586.06</ele>
        <time>2017-03-15T14:31:18Z</time>
      </trkpt>
      <trkpt lat="43.97684" lon="5.89119">
        <ele>587.98</ele>
        <time>2017-03-15T14:31:39Z</time>
      </trkpt>
      <trkpt lat="43.97697" lon="5.89122">
        <ele>588.95</ele>
        <time>2017-03-15T14:31:58Z</time>
      </trkpt>
      <trkpt lat="43.97712" lon="5.89132">
        <ele>590.87</ele>
        <time>2017-03-15T14:32:18Z</time>
      </trkpt>
      <trkpt lat="43.97719" lon="5.89135">
        <ele>591.83</ele>
        <time>2017-03-15T14:32:35Z</time>
      </trkpt>
      <trkpt lat="43.97731" lon="5.89139">
        <ele>592.79</ele>
        <time>2017-03-15T14:32:54Z</time>
      </trkpt>
      <trkpt lat="43.97753" lon="5.89143">
        <ele>592.79</ele>
        <time>2017-03-15T14:33:17Z</time>
      </trkpt>
      <trkpt lat="43.97773" lon="5.89147">
        <ele>594.71</ele>
        <time>2017-03-15T14:33:41Z</time>
      </trkpt>
      <trkpt lat="43.97794" lon="5.8915">
        <ele>595.67</ele>
        <time>2017-03-15T14:34:02Z</time>
      </trkpt>
      <trkpt lat="43.97814" lon="5.89154">
        <ele>596.64</ele>
        <time>2017-03-15T14:34:25Z</time>
      </trkpt>
      <trkpt lat="43.97834" lon="5.89152">
        <ele>596.64</ele>
        <time>2017-03-15T14:34:46Z</time>
      </trkpt>
      <trkpt lat="43.97836" lon="5.89152">
        <ele>595.19</ele>
        <time>2017-03-15T14:34:48Z</time>
      </trkpt>
      <trkpt lat="43.97843" lon="5.89157">
        <ele>596.64</ele>
        <time>2017-03-15T14:34:57Z</time>
      </trkpt>
      <trkpt lat="43.97858" lon="5.89157">
        <ele>597.6</ele>
        <time>2017-03-15T14:35:14Z</time>
      </trkpt>
      <trkpt lat="43.97871" lon="5.89156">
        <ele>597.6</ele>
        <time>2017-03-15T14:35:33Z</time>
      </trkpt>
      <trkpt lat="43.97887" lon="5.89155">
        <ele>597.6</ele>
        <time>2017-03-15T14:35:53Z</time>
      </trkpt>
      <trkpt lat="43.97902" lon="5.89161">
        <ele>599.04</ele>
        <time>2017-03-15T14:36:13Z</time>
      </trkpt>
      <trkpt lat="43.97921" lon="5.89163">
        <ele>599.04</ele>
        <time>2017-03-15T14:36:32Z</time>
      </trkpt>
      <trkpt lat="43.97941" lon="5.89166">
        <ele>600.48</ele>
        <time>2017-03-15T14:36:53Z</time>
      </trkpt>
      <trkpt lat="43.97956" lon="5.89168">
        <ele>600.48</ele>
        <time>2017-03-15T14:37:10Z</time>
      </trkpt>
      <trkpt lat="43.97972" lon="5.89168">
        <ele>600.48</ele>
        <time>2017-03-15T14:37:29Z</time>
      </trkpt>
      <trkpt lat="43.97992" lon="5.89165">
        <ele>599.04</ele>
        <time>2017-03-15T14:37:50Z</time>
      </trkpt>
      <trkpt lat="43.98014" lon="5.89169">
        <ele>599.04</ele>
        <time>2017-03-15T14:38:14Z</time>
      </trkpt>
      <trkpt lat="43.98032" lon="5.89177">
        <ele>599.04</ele>
        <time>2017-03-15T14:38:32Z</time>
      </trkpt>
      <trkpt lat="43.98047" lon="5.89173">
        <ele>599.04</ele>
        <time>2017-03-15T14:38:52Z</time>
      </trkpt>
      <trkpt lat="43.98059" lon="5.89167">
        <ele>598.56</ele>
        <time>2017-03-15T14:39:11Z</time>
      </trkpt>
      <trkpt lat="43.98072" lon="5.89165">
        <ele>597.6</ele>
        <time>2017-03-15T14:39:31Z</time>
      </trkpt>
      <trkpt lat="43.98085" lon="5.89162">
        <ele>596.64</ele>
        <time>2017-03-15T14:39:52Z</time>
      </trkpt>
      <trkpt lat="43.98093" lon="5.89162">
        <ele>596.64</ele>
        <time>2017-03-15T14:40:09Z</time>
      </trkpt>
      <trkpt lat="43.98107" lon="5.89162">
        <ele>596.15</ele>
        <time>2017-03-15T14:40:42Z</time>
      </trkpt>
      <trkpt lat="43.98116" lon="5.89158">
        <ele>595.67</ele>
        <time>2017-03-15T14:40:58Z</time>
      </trkpt>
      <trkpt lat="43.98123" lon="5.89161">
        <ele>594.71</ele>
        <time>2017-03-15T14:41:13Z</time>
      </trkpt>
      <trkpt lat="43.98139" lon="5.89159">
        <ele>594.71</ele>
        <time>2017-03-15T14:41:32Z</time>
      </trkpt>
      <trkpt lat="43.98153" lon="5.89157">
        <ele>594.23</ele>
        <time>2017-03-15T14:41:53Z</time>
      </trkpt>
      <trkpt lat="43.98162" lon="5.89154">
        <ele>593.27</ele>
        <time>2017-03-15T14:42:11Z</time>
      </trkpt>
      <trkpt lat="43.98167" lon="5.89147">
        <ele>591.35</ele>
        <time>2017-03-15T14:42:28Z</time>
      </trkpt>
      <trkpt lat="43.98173" lon="5.89149">
        <ele>590.39</ele>
        <time>2017-03-15T14:42:43Z</time>
      </trkpt>
      <trkpt lat="43.98185" lon="5.89148">
        <ele>588.46</ele>
        <time>2017-03-15T14:42:59Z</time>
      </trkpt>
      <trkpt lat="43.98193" lon="5.89147">
        <ele>587.98</ele>
        <time>2017-03-15T14:43:14Z</time>
      </trkpt>
      <trkpt lat="43.98195" lon="5.89147">
        <ele>587.98</ele>
        <time>2017-03-15T14:43:16Z</time>
      </trkpt>
      <trkpt lat="43.98203" lon="5.89143">
        <ele>587.02</ele>
        <time>2017-03-15T14:43:32Z</time>
      </trkpt>
      <trkpt lat="43.98213" lon="5.89135">
        <ele>585.1</ele>
        <time>2017-03-15T14:43:47Z</time>
      </trkpt>
      <trkpt lat="43.9822" lon="5.89134">
        <ele>584.14</ele>
        <time>2017-03-15T14:44:04Z</time>
      </trkpt>
      <trkpt lat="43.98231" lon="5.89131">
        <ele>582.7</ele>
        <time>2017-03-15T14:44:19Z</time>
      </trkpt>
      <trkpt lat="43.98236" lon="5.89128">
        <ele>582.7</ele>
        <time>2017-03-15T14:44:35Z</time>
      </trkpt>
      <trkpt lat="43.98232" lon="5.89128">
        <ele>582.22</ele>
        <time>2017-03-15T14:45:19Z</time>
      </trkpt>
      <trkpt lat="43.98237" lon="5.89123">
        <ele>580.77</ele>
        <time>2017-03-15T14:45:44Z</time>
      </trkpt>
      <trkpt lat="43.98238" lon="5.89124">
        <ele>580.77</ele>
        <time>2017-03-15T14:45:45Z</time>
      </trkpt>
      <trkpt lat="43.98247" lon="5.89124">
        <ele>580.77</ele>
        <time>2017-03-15T14:46:01Z</time>
      </trkpt>
      <trkpt lat="43.98258" lon="5.8912">
        <ele>580.77</ele>
        <time>2017-03-15T14:46:19Z</time>
      </trkpt>
      <trkpt lat="43.98272" lon="5.89117">
        <ele>580.29</ele>
        <time>2017-03-15T14:46:38Z</time>
      </trkpt>
      <trkpt lat="43.98282" lon="5.89115">
        <ele>580.29</ele>
        <time>2017-03-15T14:46:52Z</time>
      </trkpt>
      <trkpt lat="43.98291" lon="5.89113">
        <ele>579.81</ele>
        <time>2017-03-15T14:47:05Z</time>
      </trkpt>
      <trkpt lat="43.98286" lon="5.89113">
        <ele>579.81</ele>
        <time>2017-03-15T14:47:21Z</time>
      </trkpt>
      <trkpt lat="43.98283" lon="5.8911">
        <ele>579.81</ele>
        <time>2017-03-15T14:47:58Z</time>
      </trkpt>
      <trkpt lat="43.98284" lon="5.89111">
        <ele>579.33</ele>
        <time>2017-03-15T14:48:27Z</time>
      </trkpt>
      <trkpt lat="43.98294" lon="5.89112">
        <ele>579.33</ele>
        <time>2017-03-15T14:48:42Z</time>
      </trkpt>
      <trkpt lat="43.98305" lon="5.89115">
        <ele>579.81</ele>
        <time>2017-03-15T14:48:56Z</time>
      </trkpt>
      <trkpt lat="43.98319" lon="5.89118">
        <ele>579.81</ele>
        <time>2017-03-15T14:49:11Z</time>
      </trkpt>
      <trkpt lat="43.98333" lon="5.89116">
        <ele>578.85</ele>
        <time>2017-03-15T14:49:26Z</time>
      </trkpt>
      <trkpt lat="43.9833" lon="5.89114">
        <ele>578.37</ele>
        <time>2017-03-15T14:49:40Z</time>
      </trkpt>
      <trkpt lat="43.98332" lon="5.89118">
        <ele>579.81</ele>
        <time>2017-03-15T14:50:09Z</time>
      </trkpt>
      <trkpt lat="43.98337" lon="5.89115">
        <ele>578.37</ele>
        <time>2017-03-15T14:50:26Z</time>
      </trkpt>
      <trkpt lat="43.98348" lon="5.89108">
        <ele>575.97</ele>
        <time>2017-03-15T14:50:43Z</time>
      </trkpt>
      <trkpt lat="43.98362" lon="5.89106">
        <ele>575.97</ele>
        <time>2017-03-15T14:50:58Z</time>
      </trkpt>
      <trkpt lat="43.98376" lon="5.89101">
        <ele>577.41</ele>
        <time>2017-03-15T14:51:13Z</time>
      </trkpt>
      <trkpt lat="43.98388" lon="5.89099">
        <ele>575.97</ele>
        <time>2017-03-15T14:51:27Z</time>
      </trkpt>
      <trkpt lat="43.98401" lon="5.89094">
        <ele>574.53</ele>
        <time>2017-03-15T14:51:40Z</time>
      </trkpt>
      <trkpt lat="43.98416" lon="5.8909">
        <ele>573.08</ele>
        <time>2017-03-15T14:51:56Z</time>
      </trkpt>
      <trkpt lat="43.98431" lon="5.89084">
        <ele>571.64</ele>
        <time>2017-03-15T14:52:13Z</time>
      </trkpt>
      <trkpt lat="43.98443" lon="5.89079">
        <ele>571.16</ele>
        <time>2017-03-15T14:52:28Z</time>
      </trkpt>
      <trkpt lat="43.98456" lon="5.89065">
        <ele>570.2</ele>
        <time>2017-03-15T14:52:45Z</time>
      </trkpt>
      <trkpt lat="43.9846" lon="5.89048">
        <ele>569.24</ele>
        <time>2017-03-15T14:53:00Z</time>
      </trkpt>
      <trkpt lat="43.98468" lon="5.89037">
        <ele>569.24</ele>
        <time>2017-03-15T14:53:14Z</time>
      </trkpt>
      <trkpt lat="43.98469" lon="5.89037">
        <ele>569.24</ele>
        <time>2017-03-15T14:53:16Z</time>
      </trkpt>
      <trkpt lat="43.9848" lon="5.89033">
        <ele>568.76</ele>
        <time>2017-03-15T14:53:29Z</time>
      </trkpt>
      <trkpt lat="43.98491" lon="5.8903">
        <ele>567.8</ele>
        <time>2017-03-15T14:53:42Z</time>
      </trkpt>
      <trkpt lat="43.98506" lon="5.89026">
        <ele>565.87</ele>
        <time>2017-03-15T14:53:58Z</time>
      </trkpt>
      <trkpt lat="43.98521" lon="5.89023">
        <ele>564.91</ele>
        <time>2017-03-15T14:54:14Z</time>
      </trkpt>
      <trkpt lat="43.98537" lon="5.89012">
        <ele>564.43</ele>
        <time>2017-03-15T14:54:33Z</time>
      </trkpt>
      <trkpt lat="43.98543" lon="5.89012">
        <ele>562.51</ele>
        <time>2017-03-15T14:54:45Z</time>
      </trkpt>
      <trkpt lat="43.98547" lon="5.89005">
        <ele>561.55</ele>
        <time>2017-03-15T14:54:52Z</time>
      </trkpt>
      <trkpt lat="43.98549" lon="5.89002">
        <ele>560.59</ele>
        <time>2017-03-15T14:55:06Z</time>
      </trkpt>
      <trkpt lat="43.98551" lon="5.89003">
        <ele>560.11</ele>
        <time>2017-03-15T14:55:16Z</time>
      </trkpt>
      <trkpt lat="43.98557" lon="5.89007">
        <ele>559.14</ele>
        <time>2017-03-15T14:55:28Z</time>
      </trkpt>
      <trkpt lat="43.98562" lon="5.89007">
        <ele>558.18</ele>
        <time>2017-03-15T14:55:39Z</time>
      </trkpt>
      <trkpt lat="43.98559" lon="5.89001">
        <ele>558.18</ele>
        <time>2017-03-15T14:55:45Z</time>
      </trkpt>
      <trkpt lat="43.98563" lon="5.88986">
        <ele>557.22</ele>
        <time>2017-03-15T14:55:57Z</time>
      </trkpt>
      <trkpt lat="43.9857" lon="5.88975">
        <ele>556.26</ele>
        <time>2017-03-15T14:56:10Z</time>
      </trkpt>
      <trkpt lat="43.98577" lon="5.88964">
        <ele>554.82</ele>
        <time>2017-03-15T14:56:21Z</time>
      </trkpt>
      <trkpt lat="43.98581" lon="5.8896">
        <ele>554.34</ele>
        <time>2017-03-15T14:56:27Z</time>
      </trkpt>
      <trkpt lat="43.98586" lon="5.88951">
        <ele>553.38</ele>
        <time>2017-03-15T14:56:36Z</time>
      </trkpt>
      <trkpt lat="43.98596" lon="5.88946">
        <ele>552.41</ele>
        <time>2017-03-15T14:56:47Z</time>
      </trkpt>
      <trkpt lat="43.98608" lon="5.88949">
        <ele>551.93</ele>
        <time>2017-03-15T14:56:59Z</time>
      </trkpt>
      <trkpt lat="43.98619" lon="5.88951">
        <ele>550.49</ele>
        <time>2017-03-15T14:57:12Z</time>
      </trkpt>
      <trkpt lat="43.98622" lon="5.88951">
        <ele>550.49</ele>
        <time>2017-03-15T14:57:15Z</time>
      </trkpt>
      <trkpt lat="43.98623" lon="5.88951">
        <ele>550.49</ele>
        <time>2017-03-15T14:57:16Z</time>
      </trkpt>
      <trkpt lat="43.98634" lon="5.88954">
        <ele>549.53</ele>
        <time>2017-03-15T14:57:27Z</time>
      </trkpt>
      <trkpt lat="43.98651" lon="5.88959">
        <ele>548.57</ele>
        <time>2017-03-15T14:57:40Z</time>
      </trkpt>
      <trkpt lat="43.98655" lon="5.88965">
        <ele>548.09</ele>
        <time>2017-03-15T14:57:48Z</time>
      </trkpt>
      <trkpt lat="43.98657" lon="5.88965">
        <ele>548.09</ele>
        <time>2017-03-15T14:57:49Z</time>
      </trkpt>
      <trkpt lat="43.98659" lon="5.88967">
        <ele>548.09</ele>
        <time>2017-03-15T14:57:50Z</time>
      </trkpt>
      <trkpt lat="43.9866" lon="5.88968">
        <ele>548.09</ele>
        <time>2017-03-15T14:57:51Z</time>
      </trkpt>
      <trkpt lat="43.98661" lon="5.88969">
        <ele>548.09</ele>
        <time>2017-03-15T14:57:52Z</time>
      </trkpt>
      <trkpt lat="43.98663" lon="5.88979">
        <ele>548.09</ele>
        <time>2017-03-15T14:58:01Z</time>
      </trkpt>
      <trkpt lat="43.98664" lon="5.88981">
        <ele>548.09</ele>
        <time>2017-03-15T14:58:02Z</time>
      </trkpt>
      <trkpt lat="43.98664" lon="5.88983">
        <ele>548.09</ele>
        <time>2017-03-15T14:58:03Z</time>
      </trkpt>
      <trkpt lat="43.98662" lon="5.88989">
        <ele>548.09</ele>
        <time>2017-03-15T14:58:06Z</time>
      </trkpt>
      <trkpt lat="43.98651" lon="5.88995">
        <ele>549.53</ele>
        <time>2017-03-15T14:58:19Z</time>
      </trkpt>
      <trkpt lat="43.9864" lon="5.88999">
        <ele>550.01</ele>
        <time>2017-03-15T14:58:31Z</time>
      </trkpt>
      <trkpt lat="43.98631" lon="5.89003">
        <ele>550.49</ele>
        <time>2017-03-15T14:58:41Z</time>
      </trkpt>
      <trkpt lat="43.98622" lon="5.89014">
        <ele>551.93</ele>
        <time>2017-03-15T14:58:53Z</time>
      </trkpt>
      <trkpt lat="43.98621" lon="5.89016">
        <ele>551.93</ele>
        <time>2017-03-15T14:58:55Z</time>
      </trkpt>
      <trkpt lat="43.98618" lon="5.89018">
        <ele>551.93</ele>
        <time>2017-03-15T14:58:59Z</time>
      </trkpt>
      <trkpt lat="43.98618" lon="5.89021">
        <ele>552.41</ele>
        <time>2017-03-15T14:59:02Z</time>
      </trkpt>
      <trkpt lat="43.98622" lon="5.89022">
        <ele>553.38</ele>
        <time>2017-03-15T14:59:16Z</time>
      </trkpt>
      <trkpt lat="43.98623" lon="5.89021">
        <ele>553.38</ele>
        <time>2017-03-15T14:59:33Z</time>
      </trkpt>
      <trkpt lat="43.98625" lon="5.8902">
        <ele>553.38</ele>
        <time>2017-03-15T14:59:47Z</time>
      </trkpt>
      <trkpt lat="43.98622" lon="5.89021">
        <ele>553.38</ele>
        <time>2017-03-15T15:00:03Z</time>
      </trkpt>
      <trkpt lat="43.98622" lon="5.89022">
        <ele>553.38</ele>
        <time>2017-03-15T15:00:26Z</time>
      </trkpt>
      <trkpt lat="43.98618" lon="5.89023">
        <ele>553.38</ele>
        <time>2017-03-15T15:00:44Z</time>
      </trkpt>
      <trkpt lat="43.98617" lon="5.89025">
        <ele>553.86</ele>
        <time>2017-03-15T15:00:55Z</time>
      </trkpt>
      <trkpt lat="43.98616" lon="5.89025">
        <ele>553.86</ele>
        <time>2017-03-15T15:01:18Z</time>
      </trkpt>
      <trkpt lat="43.98618" lon="5.89019">
        <ele>552.41</ele>
        <time>2017-03-15T15:01:45Z</time>
      </trkpt>
      <trkpt lat="43.98613" lon="5.89023">
        <ele>553.86</ele>
        <time>2017-03-15T15:01:55Z</time>
      </trkpt>
      <trkpt lat="43.98613" lon="5.89023">
        <ele>553.86</ele>
        <time>2017-03-15T15:01:56Z</time>
      </trkpt>
      <trkpt lat="43.98618" lon="5.89033">
        <ele>554.34</ele>
        <time>2017-03-15T15:02:12Z</time>
      </trkpt>
      <trkpt lat="43.98628" lon="5.89039">
        <ele>554.82</ele>
        <time>2017-03-15T15:02:29Z</time>
      </trkpt>
      <trkpt lat="43.98628" lon="5.89038">
        <ele>555.3</ele>
        <time>2017-03-15T15:02:53Z</time>
      </trkpt>
      <trkpt lat="43.98629" lon="5.89039">
        <ele>555.3</ele>
        <time>2017-03-15T15:03:08Z</time>
      </trkpt>
      <trkpt lat="43.98622" lon="5.89038">
        <ele>555.3</ele>
        <time>2017-03-15T15:03:20Z</time>
      </trkpt>
      <trkpt lat="43.98616" lon="5.89033">
        <ele>554.34</ele>
        <time>2017-03-15T15:03:35Z</time>
      </trkpt>
      <trkpt lat="43.98613" lon="5.89026">
        <ele>553.86</ele>
        <time>2017-03-15T15:03:51Z</time>
      </trkpt>
      <trkpt lat="43.98618" lon="5.89025">
        <ele>552.41</ele>
        <time>2017-03-15T15:04:04Z</time>
      </trkpt>
      <trkpt lat="43.98617" lon="5.89026">
        <ele>552.41</ele>
        <time>2017-03-15T15:04:25Z</time>
      </trkpt>
      <trkpt lat="43.98621" lon="5.89024">
        <ele>552.41</ele>
        <time>2017-03-15T15:04:56Z</time>
      </trkpt>
      <trkpt lat="43.98619" lon="5.89023">
        <ele>552.9</ele>
        <time>2017-03-15T15:05:20Z</time>
      </trkpt>
      <trkpt lat="43.98617" lon="5.8902">
        <ele>552.9</ele>
        <time>2017-03-15T15:05:52Z</time>
      </trkpt>
      <trkpt lat="43.98615" lon="5.8902">
        <ele>553.86</ele>
        <time>2017-03-15T15:06:19Z</time>
      </trkpt>
      <trkpt lat="43.98616" lon="5.89022">
        <ele>553.86</ele>
        <time>2017-03-15T15:06:43Z</time>
      </trkpt>
      <trkpt lat="43.98616" lon="5.89021">
        <ele>552.41</ele>
        <time>2017-03-15T15:06:47Z</time>
      </trkpt>
      <trkpt lat="43.98615" lon="5.89021">
        <ele>552.41</ele>
        <time>2017-03-15T15:07:02Z</time>
      </trkpt>
      <trkpt lat="43.98623" lon="5.8902">
        <ele>553.86</ele>
        <time>2017-03-15T15:07:12Z</time>
      </trkpt>
      <trkpt lat="43.98621" lon="5.89018">
        <ele>553.86</ele>
        <time>2017-03-15T15:07:31Z</time>
      </trkpt>
      <trkpt lat="43.98621" lon="5.89017">
        <ele>552.41</ele>
        <time>2017-03-15T15:07:49Z</time>
      </trkpt>
      <trkpt lat="43.98619" lon="5.89016">
        <ele>552.41</ele>
        <time>2017-03-15T15:08:15Z</time>
      </trkpt>
      <trkpt lat="43.98622" lon="5.89015">
        <ele>552.41</ele>
        <time>2017-03-15T15:08:48Z</time>
      </trkpt>
      <trkpt lat="43.98622" lon="5.89017">
        <ele>552.41</ele>
        <time>2017-03-15T15:09:17Z</time>
      </trkpt>
      <trkpt lat="43.98617" lon="5.89013">
        <ele>552.41</ele>
        <time>2017-03-15T15:09:45Z</time>
      </trkpt>
      <trkpt lat="43.9862" lon="5.89007">
        <ele>551.93</ele>
        <time>2017-03-15T15:10:01Z</time>
      </trkpt>
      <trkpt lat="43.98625" lon="5.89005">
        <ele>551.45</ele>
        <time>2017-03-15T15:10:18Z</time>
      </trkpt>
      <trkpt lat="43.98635" lon="5.88997">
        <ele>550.97</ele>
        <time>2017-03-15T15:10:34Z</time>
      </trkpt>
      <trkpt lat="43.98647" lon="5.88992">
        <ele>549.53</ele>
        <time>2017-03-15T15:10:54Z</time>
      </trkpt>
      <trkpt lat="43.98655" lon="5.88989">
        <ele>549.05</ele>
        <time>2017-03-15T15:11:07Z</time>
      </trkpt>
      <trkpt lat="43.98665" lon="5.88984">
        <ele>549.05</ele>
        <time>2017-03-15T15:11:22Z</time>
      </trkpt>
      <trkpt lat="43.98673" lon="5.88982">
        <ele>548.57</ele>
        <time>2017-03-15T15:11:37Z</time>
      </trkpt>
      <trkpt lat="43.98668" lon="5.88979">
        <ele>547.61</ele>
        <time>2017-03-15T15:11:48Z</time>
      </trkpt>
      <trkpt lat="43.98668" lon="5.88982">
        <ele>549.05</ele>
        <time>2017-03-15T15:12:04Z</time>
      </trkpt>
      <trkpt lat="43.98674" lon="5.88985">
        <ele>549.05</ele>
        <time>2017-03-15T15:12:19Z</time>
      </trkpt>
      <trkpt lat="43.98672" lon="5.88985">
        <ele>549.05</ele>
        <time>2017-03-15T15:12:24Z</time>
      </trkpt>
      <trkpt lat="43.98667" lon="5.8898">
        <ele>549.05</ele>
        <time>2017-03-15T15:12:30Z</time>
      </trkpt>
      <trkpt lat="43.98663" lon="5.88972">
        <ele>549.05</ele>
        <time>2017-03-15T15:12:37Z</time>
      </trkpt>
      <trkpt lat="43.98664" lon="5.88954">
        <ele>546.17</ele>
        <time>2017-03-15T15:12:53Z</time>
      </trkpt>
      <trkpt lat="43.98667" lon="5.88952">
        <ele>546.17</ele>
        <time>2017-03-15T15:13:09Z</time>
      </trkpt>
      <trkpt lat="43.9867" lon="5.88953">
        <ele>543.28</ele>
        <time>2017-03-15T15:13:26Z</time>
      </trkpt>
      <trkpt lat="43.98672" lon="5.88957">
        <ele>540.4</ele>
        <time>2017-03-15T15:13:42Z</time>
      </trkpt>
      <trkpt lat="43.98669" lon="5.88956">
        <ele>543.76</ele>
        <time>2017-03-15T15:13:49Z</time>
      </trkpt>
      <trkpt lat="43.98664" lon="5.88956">
        <ele>546.17</ele>
        <time>2017-03-15T15:13:56Z</time>
      </trkpt>
      <trkpt lat="43.98663" lon="5.88961">
        <ele>546.65</ele>
        <time>2017-03-15T15:14:00Z</time>
      </trkpt>
      <trkpt lat="43.98647" lon="5.8899">
        <ele>548.57</ele>
        <time>2017-03-15T15:14:14Z</time>
      </trkpt>
      <trkpt lat="43.98623" lon="5.89011">
        <ele>550.97</ele>
        <time>2017-03-15T15:14:36Z</time>
      </trkpt>
      <trkpt lat="43.98618" lon="5.8902">
        <ele>552.41</ele>
        <time>2017-03-15T15:14:48Z</time>
      </trkpt>
      <trkpt lat="43.98625" lon="5.89009">
        <ele>550.97</ele>
        <time>2017-03-15T15:14:57Z</time>
      </trkpt>
      <trkpt lat="43.98646" lon="5.88995">
        <ele>549.53</ele>
        <time>2017-03-15T15:15:15Z</time>
      </trkpt>
      <trkpt lat="43.98661" lon="5.8897">
        <ele>547.61</ele>
        <time>2017-03-15T15:15:33Z</time>
      </trkpt>
      <trkpt lat="43.98666" lon="5.88957">
        <ele>545.2</ele>
        <time>2017-03-15T15:15:49Z</time>
      </trkpt>
      <trkpt lat="43.98669" lon="5.88957">
        <ele>541.84</ele>
        <time>2017-03-15T15:16:01Z</time>
      </trkpt>
      <trkpt lat="43.98686" lon="5.88961">
        <ele>539.92</ele>
        <time>2017-03-15T15:16:18Z</time>
      </trkpt>
      <trkpt lat="43.98694" lon="5.88963">
        <ele>537.99</ele>
        <time>2017-03-15T15:16:31Z</time>
      </trkpt>
      <trkpt lat="43.98697" lon="5.88967">
        <ele>537.51</ele>
        <time>2017-03-15T15:16:45Z</time>
      </trkpt>
      <trkpt lat="43.98704" lon="5.88973">
        <ele>537.51</ele>
        <time>2017-03-15T15:17:08Z</time>
      </trkpt>
      <trkpt lat="43.98704" lon="5.88972">
        <ele>537.51</ele>
        <time>2017-03-15T15:17:23Z</time>
      </trkpt>
      <trkpt lat="43.9871" lon="5.88973">
        <ele>536.07</ele>
        <time>2017-03-15T15:17:39Z</time>
      </trkpt>
      <trkpt lat="43.98716" lon="5.88969">
        <ele>535.11</ele>
        <time>2017-03-15T15:17:53Z</time>
      </trkpt>
      <trkpt lat="43.98722" lon="5.88965">
        <ele>534.15</ele>
        <time>2017-03-15T15:18:04Z</time>
      </trkpt>
      <trkpt lat="43.98732" lon="5.88964">
        <ele>532.71</ele>
        <time>2017-03-15T15:18:18Z</time>
      </trkpt>
      <trkpt lat="43.98733" lon="5.88964">
        <ele>532.23</ele>
        <time>2017-03-15T15:18:19Z</time>
      </trkpt>
      <trkpt lat="43.98745" lon="5.88966">
        <ele>530.79</ele>
        <time>2017-03-15T15:18:34Z</time>
      </trkpt>
      <trkpt lat="43.98754" lon="5.88974">
        <ele>528.86</ele>
        <time>2017-03-15T15:18:48Z</time>
      </trkpt>
      <trkpt lat="43.98758" lon="5.88978">
        <ele>528.86</ele>
        <time>2017-03-15T15:19:00Z</time>
      </trkpt>
      <trkpt lat="43.98771" lon="5.88985">
        <ele>526.46</ele>
        <time>2017-03-15T15:19:15Z</time>
      </trkpt>
      <trkpt lat="43.98784" lon="5.88997">
        <ele>523.58</ele>
        <time>2017-03-15T15:19:31Z</time>
      </trkpt>
      <trkpt lat="43.98792" lon="5.89002">
        <ele>523.09</ele>
        <time>2017-03-15T15:19:44Z</time>
      </trkpt>
      <trkpt lat="43.98796" lon="5.89">
        <ele>522.61</ele>
        <time>2017-03-15T15:20:16Z</time>
      </trkpt>
      <trkpt lat="43.98792" lon="5.88999">
        <ele>522.61</ele>
        <time>2017-03-15T15:20:32Z</time>
      </trkpt>
      <trkpt lat="43.98794" lon="5.89007">
        <ele>522.61</ele>
        <time>2017-03-15T15:20:54Z</time>
      </trkpt>
      <trkpt lat="43.98798" lon="5.89016">
        <ele>522.13</ele>
        <time>2017-03-15T15:21:09Z</time>
      </trkpt>
      <trkpt lat="43.98804" lon="5.89023">
        <ele>520.69</ele>
        <time>2017-03-15T15:21:17Z</time>
      </trkpt>
      <trkpt lat="43.98814" lon="5.89035">
        <ele>518.29</ele>
        <time>2017-03-15T15:21:33Z</time>
      </trkpt>
      <trkpt lat="43.98823" lon="5.89045">
        <ele>518.29</ele>
        <time>2017-03-15T15:21:49Z</time>
      </trkpt>
      <trkpt lat="43.98831" lon="5.89055">
        <ele>516.37</ele>
        <time>2017-03-15T15:22:04Z</time>
      </trkpt>
      <trkpt lat="43.98834" lon="5.89058">
        <ele>515.88</ele>
        <time>2017-03-15T15:22:07Z</time>
      </trkpt>
      <trkpt lat="43.98836" lon="5.8906">
        <ele>515.4</ele>
        <time>2017-03-15T15:22:09Z</time>
      </trkpt>
      <trkpt lat="43.98839" lon="5.89072">
        <ele>513.48</ele>
        <time>2017-03-15T15:22:24Z</time>
      </trkpt>
      <trkpt lat="43.98839" lon="5.89075">
        <ele>513</ele>
        <time>2017-03-15T15:22:26Z</time>
      </trkpt>
      <trkpt lat="43.98842" lon="5.89085">
        <ele>512.04</ele>
        <time>2017-03-15T15:22:32Z</time>
      </trkpt>
      <trkpt lat="43.9884" lon="5.89097">
        <ele>510.12</ele>
        <time>2017-03-15T15:22:45Z</time>
      </trkpt>
      <trkpt lat="43.98836" lon="5.89109">
        <ele>509.16</ele>
        <time>2017-03-15T15:22:54Z</time>
      </trkpt>
      <trkpt lat="43.98834" lon="5.89121">
        <ele>508.19</ele>
        <time>2017-03-15T15:23:05Z</time>
      </trkpt>
      <trkpt lat="43.98831" lon="5.8914">
        <ele>507.71</ele>
        <time>2017-03-15T15:23:17Z</time>
      </trkpt>
      <trkpt lat="43.98831" lon="5.89142">
        <ele>507.71</ele>
        <time>2017-03-15T15:23:19Z</time>
      </trkpt>
      <trkpt lat="43.98831" lon="5.89155">
        <ele>507.23</ele>
        <time>2017-03-15T15:23:30Z</time>
      </trkpt>
      <trkpt lat="43.98837" lon="5.89176">
        <ele>504.83</ele>
        <time>2017-03-15T15:23:43Z</time>
      </trkpt>
      <trkpt lat="43.98836" lon="5.89178">
        <ele>504.35</ele>
        <time>2017-03-15T15:23:49Z</time>
      </trkpt>
      <trkpt lat="43.98836" lon="5.89188">
        <ele>503.87</ele>
        <time>2017-03-15T15:24:01Z</time>
      </trkpt>
      <trkpt lat="43.98836" lon="5.89191">
        <ele>502.91</ele>
        <time>2017-03-15T15:24:03Z</time>
      </trkpt>
      <trkpt lat="43.98836" lon="5.89199">
        <ele>500.98</ele>
        <time>2017-03-15T15:24:16Z</time>
      </trkpt>
      <trkpt lat="43.98834" lon="5.89205">
        <ele>500.5</ele>
        <time>2017-03-15T15:24:29Z</time>
      </trkpt>
      <trkpt lat="43.98832" lon="5.89207">
        <ele>500.5</ele>
        <time>2017-03-15T15:24:32Z</time>
      </trkpt>
      <trkpt lat="43.98831" lon="5.8921">
        <ele>500.5</ele>
        <time>2017-03-15T15:24:35Z</time>
      </trkpt>
      <trkpt lat="43.98826" lon="5.89218">
        <ele>499.54</ele>
        <time>2017-03-15T15:24:45Z</time>
      </trkpt>
      <trkpt lat="43.98819" lon="5.89238">
        <ele>497.62</ele>
        <time>2017-03-15T15:24:58Z</time>
      </trkpt>
      <trkpt lat="43.98815" lon="5.89248">
        <ele>496.66</ele>
        <time>2017-03-15T15:25:09Z</time>
      </trkpt>
      <trkpt lat="43.98812" lon="5.89257">
        <ele>496.18</ele>
        <time>2017-03-15T15:25:15Z</time>
      </trkpt>
      <trkpt lat="43.98812" lon="5.8926">
        <ele>495.22</ele>
        <time>2017-03-15T15:25:22Z</time>
      </trkpt>
      <trkpt lat="43.98803" lon="5.89273">
        <ele>493.77</ele>
        <time>2017-03-15T15:25:33Z</time>
      </trkpt>
      <trkpt lat="43.98802" lon="5.89276">
        <ele>493.29</ele>
        <time>2017-03-15T15:25:37Z</time>
      </trkpt>
      <trkpt lat="43.98793" lon="5.89291">
        <ele>492.81</ele>
        <time>2017-03-15T15:25:49Z</time>
      </trkpt>
      <trkpt lat="43.98792" lon="5.89292">
        <ele>492.81</ele>
        <time>2017-03-15T15:25:50Z</time>
      </trkpt>
      <trkpt lat="43.98784" lon="5.8931">
        <ele>491.85</ele>
        <time>2017-03-15T15:26:06Z</time>
      </trkpt>
      <trkpt lat="43.9878" lon="5.89326">
        <ele>490.89</ele>
        <time>2017-03-15T15:26:20Z</time>
      </trkpt>
      <trkpt lat="43.98775" lon="5.89345">
        <ele>490.89</ele>
        <time>2017-03-15T15:26:34Z</time>
      </trkpt>
      <trkpt lat="43.98774" lon="5.89366">
        <ele>488.97</ele>
        <time>2017-03-15T15:26:50Z</time>
      </trkpt>
      <trkpt lat="43.98779" lon="5.89388">
        <ele>487.05</ele>
        <time>2017-03-15T15:27:07Z</time>
      </trkpt>
      <trkpt lat="43.9878" lon="5.89392">
        <ele>487.05</ele>
        <time>2017-03-15T15:27:10Z</time>
      </trkpt>
      <trkpt lat="43.98783" lon="5.89411">
        <ele>486.56</ele>
        <time>2017-03-15T15:27:23Z</time>
      </trkpt>
      <trkpt lat="43.98783" lon="5.89413">
        <ele>486.56</ele>
        <time>2017-03-15T15:27:24Z</time>
      </trkpt>
      <trkpt lat="43.98778" lon="5.89428">
        <ele>488.01</ele>
        <time>2017-03-15T15:27:38Z</time>
      </trkpt>
      <trkpt lat="43.98768" lon="5.89442">
        <ele>489.93</ele>
        <time>2017-03-15T15:27:56Z</time>
      </trkpt>
      <trkpt lat="43.98759" lon="5.89453">
        <ele>490.41</ele>
        <time>2017-03-15T15:28:13Z</time>
      </trkpt>
      <trkpt lat="43.98756" lon="5.89455">
        <ele>490.89</ele>
        <time>2017-03-15T15:28:18Z</time>
      </trkpt>
      <trkpt lat="43.98741" lon="5.89461">
        <ele>491.37</ele>
        <time>2017-03-15T15:28:35Z</time>
      </trkpt>
      <trkpt lat="43.98728" lon="5.89459">
        <ele>493.77</ele>
        <time>2017-03-15T15:28:51Z</time>
      </trkpt>
      <trkpt lat="43.98717" lon="5.89454">
        <ele>494.74</ele>
        <time>2017-03-15T15:29:05Z</time>
      </trkpt>
      <trkpt lat="43.98707" lon="5.89439">
        <ele>494.74</ele>
        <time>2017-03-15T15:29:22Z</time>
      </trkpt>
      <trkpt lat="43.98705" lon="5.89437">
        <ele>495.22</ele>
        <time>2017-03-15T15:29:24Z</time>
      </trkpt>
      <trkpt lat="43.98694" lon="5.89425">
        <ele>497.14</ele>
        <time>2017-03-15T15:29:40Z</time>
      </trkpt>
      <trkpt lat="43.98693" lon="5.89424">
        <ele>497.14</ele>
        <time>2017-03-15T15:29:41Z</time>
      </trkpt>
      <trkpt lat="43.98688" lon="5.89422">
        <ele>497.62</ele>
        <time>2017-03-15T15:29:46Z</time>
      </trkpt>
      <trkpt lat="43.98675" lon="5.89419">
        <ele>498.1</ele>
        <time>2017-03-15T15:30:01Z</time>
      </trkpt>
      <trkpt lat="43.98664" lon="5.8942">
        <ele>498.58</ele>
        <time>2017-03-15T15:30:14Z</time>
      </trkpt>
      <trkpt lat="43.98652" lon="5.89424">
        <ele>499.54</ele>
        <time>2017-03-15T15:30:29Z</time>
      </trkpt>
      <trkpt lat="43.98638" lon="5.89429">
        <ele>500.98</ele>
        <time>2017-03-15T15:30:44Z</time>
      </trkpt>
      <trkpt lat="43.98623" lon="5.89431">
        <ele>502.43</ele>
        <time>2017-03-15T15:31:00Z</time>
      </trkpt>
      <trkpt lat="43.98609" lon="5.89434">
        <ele>503.39</ele>
        <time>2017-03-15T15:31:14Z</time>
      </trkpt>
      <trkpt lat="43.98596" lon="5.89434">
        <ele>503.39</ele>
        <time>2017-03-15T15:31:28Z</time>
      </trkpt>
      <trkpt lat="43.98579" lon="5.89436">
        <ele>503.39</ele>
        <time>2017-03-15T15:31:43Z</time>
      </trkpt>
      <trkpt lat="43.98571" lon="5.89435">
        <ele>503.87</ele>
        <time>2017-03-15T15:31:51Z</time>
      </trkpt>
      <trkpt lat="43.98569" lon="5.89435">
        <ele>503.87</ele>
        <time>2017-03-15T15:31:52Z</time>
      </trkpt>
      <trkpt lat="43.98563" lon="5.8943">
        <ele>503.87</ele>
        <time>2017-03-15T15:32:04Z</time>
      </trkpt>
      <trkpt lat="43.9855" lon="5.89421">
        <ele>502.43</ele>
        <time>2017-03-15T15:32:16Z</time>
      </trkpt>
      <trkpt lat="43.98548" lon="5.89418">
        <ele>502.43</ele>
        <time>2017-03-15T15:32:20Z</time>
      </trkpt>
      <trkpt lat="43.98533" lon="5.8941">
        <ele>502.43</ele>
        <time>2017-03-15T15:32:34Z</time>
      </trkpt>
      <trkpt lat="43.9853" lon="5.89409">
        <ele>502.43</ele>
        <time>2017-03-15T15:32:37Z</time>
      </trkpt>
      <trkpt lat="43.98528" lon="5.89408">
        <ele>502.43</ele>
        <time>2017-03-15T15:32:38Z</time>
      </trkpt>
      <trkpt lat="43.98527" lon="5.89407">
        <ele>502.43</ele>
        <time>2017-03-15T15:32:39Z</time>
      </trkpt>
      <trkpt lat="43.98515" lon="5.89401">
        <ele>502.43</ele>
        <time>2017-03-15T15:32:51Z</time>
      </trkpt>
      <trkpt lat="43.98511" lon="5.894">
        <ele>503.39</ele>
        <time>2017-03-15T15:32:55Z</time>
      </trkpt>
      <trkpt lat="43.98501" lon="5.89398">
        <ele>503.87</ele>
        <time>2017-03-15T15:33:08Z</time>
      </trkpt>
      <trkpt lat="43.98487" lon="5.89398">
        <ele>503.87</ele>
        <time>2017-03-15T15:33:22Z</time>
      </trkpt>
      <trkpt lat="43.98474" lon="5.894">
        <ele>503.87</ele>
        <time>2017-03-15T15:33:35Z</time>
      </trkpt>
      <trkpt lat="43.9847" lon="5.894">
        <ele>503.87</ele>
        <time>2017-03-15T15:33:38Z</time>
      </trkpt>
      <trkpt lat="43.98469" lon="5.89401">
        <ele>502.43</ele>
        <time>2017-03-15T15:33:39Z</time>
      </trkpt>
      <trkpt lat="43.98468" lon="5.89401">
        <ele>502.43</ele>
        <time>2017-03-15T15:33:40Z</time>
      </trkpt>
      <trkpt lat="43.98466" lon="5.894">
        <ele>502.43</ele>
        <time>2017-03-15T15:33:42Z</time>
      </trkpt>
      <trkpt lat="43.98465" lon="5.894">
        <ele>502.43</ele>
        <time>2017-03-15T15:33:43Z</time>
      </trkpt>
      <trkpt lat="43.9846" lon="5.89396">
        <ele>502.43</ele>
        <time>2017-03-15T15:33:52Z</time>
      </trkpt>
      <trkpt lat="43.98438" lon="5.89399">
        <ele>501.95</ele>
        <time>2017-03-15T15:34:04Z</time>
      </trkpt>
      <trkpt lat="43.9841" lon="5.89409">
        <ele>500.98</ele>
        <time>2017-03-15T15:34:19Z</time>
      </trkpt>
      <trkpt lat="43.98407" lon="5.89409">
        <ele>500.5</ele>
        <time>2017-03-15T15:34:32Z</time>
      </trkpt>
      <trkpt lat="43.98394" lon="5.89412">
        <ele>500.5</ele>
        <time>2017-03-15T15:34:45Z</time>
      </trkpt>
      <trkpt lat="43.98393" lon="5.89412">
        <ele>501.95</ele>
        <time>2017-03-15T15:34:47Z</time>
      </trkpt>
      <trkpt lat="43.98389" lon="5.89411">
        <ele>501.95</ele>
        <time>2017-03-15T15:34:51Z</time>
      </trkpt>
      <trkpt lat="43.98388" lon="5.89411">
        <ele>501.95</ele>
        <time>2017-03-15T15:34:52Z</time>
      </trkpt>
      <trkpt lat="43.98377" lon="5.89404">
        <ele>502.43</ele>
        <time>2017-03-15T15:35:04Z</time>
      </trkpt>
      <trkpt lat="43.98366" lon="5.89398">
        <ele>504.35</ele>
        <time>2017-03-15T15:35:18Z</time>
      </trkpt>
      <trkpt lat="43.98354" lon="5.89392">
        <ele>505.31</ele>
        <time>2017-03-15T15:35:31Z</time>
      </trkpt>
      <trkpt lat="43.98346" lon="5.89392">
        <ele>506.27</ele>
        <time>2017-03-15T15:35:40Z</time>
      </trkpt>
      <trkpt lat="43.98344" lon="5.89393">
        <ele>506.27</ele>
        <time>2017-03-15T15:35:42Z</time>
      </trkpt>
      <trkpt lat="43.98342" lon="5.89393">
        <ele>506.27</ele>
        <time>2017-03-15T15:35:43Z</time>
      </trkpt>
      <trkpt lat="43.98338" lon="5.89393">
        <ele>506.27</ele>
        <time>2017-03-15T15:35:48Z</time>
      </trkpt>
      <trkpt lat="43.98337" lon="5.89392">
        <ele>506.27</ele>
        <time>2017-03-15T15:35:49Z</time>
      </trkpt>
      <trkpt lat="43.98334" lon="5.89391">
        <ele>504.83</ele>
        <time>2017-03-15T15:35:55Z</time>
      </trkpt>
      <trkpt lat="43.98332" lon="5.8939">
        <ele>504.83</ele>
        <time>2017-03-15T15:35:56Z</time>
      </trkpt>
      <trkpt lat="43.98331" lon="5.8939">
        <ele>504.83</ele>
        <time>2017-03-15T15:35:57Z</time>
      </trkpt>
      <trkpt lat="43.98329" lon="5.89389">
        <ele>504.83</ele>
        <time>2017-03-15T15:35:58Z</time>
      </trkpt>
      <trkpt lat="43.9832" lon="5.89385">
        <ele>504.83</ele>
        <time>2017-03-15T15:36:10Z</time>
      </trkpt>
      <trkpt lat="43.98305" lon="5.8938">
        <ele>503.39</ele>
        <time>2017-03-15T15:36:23Z</time>
      </trkpt>
      <trkpt lat="43.98295" lon="5.89377">
        <ele>502.43</ele>
        <time>2017-03-15T15:36:35Z</time>
      </trkpt>
      <trkpt lat="43.98286" lon="5.89373">
        <ele>502.43</ele>
        <time>2017-03-15T15:36:44Z</time>
      </trkpt>
      <trkpt lat="43.98285" lon="5.89373">
        <ele>502.43</ele>
        <time>2017-03-15T15:36:45Z</time>
      </trkpt>
      <trkpt lat="43.98284" lon="5.89373">
        <ele>502.43</ele>
        <time>2017-03-15T15:36:46Z</time>
      </trkpt>
      <trkpt lat="43.98282" lon="5.89373">
        <ele>502.43</ele>
        <time>2017-03-15T15:36:47Z</time>
      </trkpt>
      <trkpt lat="43.98281" lon="5.89374">
        <ele>502.43</ele>
        <time>2017-03-15T15:36:48Z</time>
      </trkpt>
      <trkpt lat="43.9828" lon="5.89374">
        <ele>502.43</ele>
        <time>2017-03-15T15:36:49Z</time>
      </trkpt>
      <trkpt lat="43.98278" lon="5.89374">
        <ele>502.43</ele>
        <time>2017-03-15T15:36:50Z</time>
      </trkpt>
      <trkpt lat="43.98274" lon="5.89372">
        <ele>502.43</ele>
        <time>2017-03-15T15:37:00Z</time>
      </trkpt>
      <trkpt lat="43.98275" lon="5.8937">
        <ele>502.43</ele>
        <time>2017-03-15T15:37:02Z</time>
      </trkpt>
      <trkpt lat="43.98272" lon="5.8937">
        <ele>501.95</ele>
        <time>2017-03-15T15:37:06Z</time>
      </trkpt>
      <trkpt lat="43.9827" lon="5.89371">
        <ele>501.95</ele>
        <time>2017-03-15T15:37:07Z</time>
      </trkpt>
      <trkpt lat="43.98269" lon="5.89371">
        <ele>501.95</ele>
        <time>2017-03-15T15:37:08Z</time>
      </trkpt>
      <trkpt lat="43.98267" lon="5.89371">
        <ele>501.95</ele>
        <time>2017-03-15T15:37:09Z</time>
      </trkpt>
      <trkpt lat="43.98265" lon="5.89372">
        <ele>501.95</ele>
        <time>2017-03-15T15:37:10Z</time>
      </trkpt>
      <trkpt lat="43.98262" lon="5.89372">
        <ele>501.95</ele>
        <time>2017-03-15T15:37:11Z</time>
      </trkpt>
      <trkpt lat="43.98259" lon="5.89373">
        <ele>501.95</ele>
        <time>2017-03-15T15:37:12Z</time>
      </trkpt>
      <trkpt lat="43.98257" lon="5.89373">
        <ele>501.95</ele>
        <time>2017-03-15T15:37:13Z</time>
      </trkpt>
      <trkpt lat="43.98242" lon="5.89376">
        <ele>500.98</ele>
        <time>2017-03-15T15:37:23Z</time>
      </trkpt>
      <trkpt lat="43.98241" lon="5.89376">
        <ele>500.98</ele>
        <time>2017-03-15T15:37:24Z</time>
      </trkpt>
      <trkpt lat="43.98238" lon="5.89382">
        <ele>500.98</ele>
        <time>2017-03-15T15:37:33Z</time>
      </trkpt>
      <trkpt lat="43.98237" lon="5.89384">
        <ele>500.98</ele>
        <time>2017-03-15T15:37:34Z</time>
      </trkpt>
      <trkpt lat="43.98237" lon="5.89386">
        <ele>500.98</ele>
        <time>2017-03-15T15:37:35Z</time>
      </trkpt>
      <trkpt lat="43.98237" lon="5.89389">
        <ele>500.98</ele>
        <time>2017-03-15T15:37:36Z</time>
      </trkpt>
      <trkpt lat="43.98236" lon="5.8939">
        <ele>500.98</ele>
        <time>2017-03-15T15:37:37Z</time>
      </trkpt>
      <trkpt lat="43.98235" lon="5.89391">
        <ele>500.98</ele>
        <time>2017-03-15T15:37:38Z</time>
      </trkpt>
      <trkpt lat="43.98231" lon="5.89394">
        <ele>500.98</ele>
        <time>2017-03-15T15:37:45Z</time>
      </trkpt>
      <trkpt lat="43.98228" lon="5.89395">
        <ele>500.98</ele>
        <time>2017-03-15T15:37:46Z</time>
      </trkpt>
      <trkpt lat="43.98226" lon="5.89396">
        <ele>500.98</ele>
        <time>2017-03-15T15:37:47Z</time>
      </trkpt>
      <trkpt lat="43.98224" lon="5.89397">
        <ele>500.98</ele>
        <time>2017-03-15T15:37:48Z</time>
      </trkpt>
      <trkpt lat="43.98222" lon="5.89397">
        <ele>500.98</ele>
        <time>2017-03-15T15:37:49Z</time>
      </trkpt>
      <trkpt lat="43.98221" lon="5.89397">
        <ele>500.98</ele>
        <time>2017-03-15T15:37:50Z</time>
      </trkpt>
      <trkpt lat="43.9822" lon="5.89397">
        <ele>500.98</ele>
        <time>2017-03-15T15:37:51Z</time>
      </trkpt>
      <trkpt lat="43.98215" lon="5.89395">
        <ele>500.98</ele>
        <time>2017-03-15T15:37:59Z</time>
      </trkpt>
      <trkpt lat="43.98214" lon="5.89395">
        <ele>500.98</ele>
        <time>2017-03-15T15:38:00Z</time>
      </trkpt>
      <trkpt lat="43.98204" lon="5.89389">
        <ele>502.43</ele>
        <time>2017-03-15T15:38:12Z</time>
      </trkpt>
      <trkpt lat="43.98204" lon="5.89389">
        <ele>502.43</ele>
        <time>2017-03-15T15:38:13Z</time>
      </trkpt>
      <trkpt lat="43.98202" lon="5.89388">
        <ele>502.43</ele>
        <time>2017-03-15T15:38:14Z</time>
      </trkpt>
      <trkpt lat="43.98201" lon="5.89388">
        <ele>503.39</ele>
        <time>2017-03-15T15:38:15Z</time>
      </trkpt>
      <trkpt lat="43.9819" lon="5.8939">
        <ele>503.87</ele>
        <time>2017-03-15T15:38:26Z</time>
      </trkpt>
      <trkpt lat="43.98188" lon="5.89394">
        <ele>504.35</ele>
        <time>2017-03-15T15:38:29Z</time>
      </trkpt>
      <trkpt lat="43.98175" lon="5.89399">
        <ele>505.31</ele>
        <time>2017-03-15T15:38:42Z</time>
      </trkpt>
      <trkpt lat="43.98171" lon="5.89401">
        <ele>505.31</ele>
        <time>2017-03-15T15:38:49Z</time>
      </trkpt>
      <trkpt lat="43.98169" lon="5.89402">
        <ele>505.31</ele>
        <time>2017-03-15T15:38:50Z</time>
      </trkpt>
      <trkpt lat="43.98167" lon="5.89402">
        <ele>505.31</ele>
        <time>2017-03-15T15:38:51Z</time>
      </trkpt>
      <trkpt lat="43.98165" lon="5.89402">
        <ele>505.31</ele>
        <time>2017-03-15T15:38:52Z</time>
      </trkpt>
      <trkpt lat="43.98164" lon="5.89402">
        <ele>505.31</ele>
        <time>2017-03-15T15:38:53Z</time>
      </trkpt>
      <trkpt lat="43.98162" lon="5.89402">
        <ele>505.31</ele>
        <time>2017-03-15T15:38:54Z</time>
      </trkpt>
      <trkpt lat="43.98156" lon="5.89403">
        <ele>505.31</ele>
        <time>2017-03-15T15:39:05Z</time>
      </trkpt>
      <trkpt lat="43.98154" lon="5.89404">
        <ele>505.31</ele>
        <time>2017-03-15T15:39:07Z</time>
      </trkpt>
      <trkpt lat="43.98145" lon="5.89411">
        <ele>505.31</ele>
        <time>2017-03-15T15:39:18Z</time>
      </trkpt>
      <trkpt lat="43.98133" lon="5.89418">
        <ele>505.31</ele>
        <time>2017-03-15T15:39:29Z</time>
      </trkpt>
      <trkpt lat="43.98114" lon="5.89425">
        <ele>505.79</ele>
        <time>2017-03-15T15:39:44Z</time>
      </trkpt>
      <trkpt lat="43.98103" lon="5.8943">
        <ele>506.27</ele>
        <time>2017-03-15T15:39:55Z</time>
      </trkpt>
      <trkpt lat="43.98086" lon="5.89435">
        <ele>507.23</ele>
        <time>2017-03-15T15:40:11Z</time>
      </trkpt>
      <trkpt lat="43.98074" lon="5.89437">
        <ele>507.23</ele>
        <time>2017-03-15T15:40:25Z</time>
      </trkpt>
      <trkpt lat="43.98057" lon="5.89438">
        <ele>507.71</ele>
        <time>2017-03-15T15:40:40Z</time>
      </trkpt>
      <trkpt lat="43.9804" lon="5.8944">
        <ele>507.71</ele>
        <time>2017-03-15T15:40:54Z</time>
      </trkpt>
      <trkpt lat="43.98039" lon="5.89441">
        <ele>507.71</ele>
        <time>2017-03-15T15:40:55Z</time>
      </trkpt>
      <trkpt lat="43.98039" lon="5.89441">
        <ele>507.71</ele>
        <time>2017-03-15T15:40:56Z</time>
      </trkpt>
      <trkpt lat="43.98038" lon="5.89445">
        <ele>508.19</ele>
        <time>2017-03-15T15:41:00Z</time>
      </trkpt>
      <trkpt lat="43.98044" lon="5.89455">
        <ele>509.16</ele>
        <time>2017-03-15T15:41:12Z</time>
      </trkpt>
      <trkpt lat="43.9805" lon="5.89469">
        <ele>511.08</ele>
        <time>2017-03-15T15:41:26Z</time>
      </trkpt>
      <trkpt lat="43.98053" lon="5.89479">
        <ele>512.04</ele>
        <time>2017-03-15T15:41:35Z</time>
      </trkpt>
      <trkpt lat="43.98053" lon="5.89481">
        <ele>512.04</ele>
        <time>2017-03-15T15:41:36Z</time>
      </trkpt>
      <trkpt lat="43.98053" lon="5.89487">
        <ele>512.52</ele>
        <time>2017-03-15T15:41:43Z</time>
      </trkpt>
      <trkpt lat="43.98052" lon="5.89495">
        <ele>513</ele>
        <time>2017-03-15T15:41:49Z</time>
      </trkpt>
      <trkpt lat="43.98052" lon="5.89497">
        <ele>513</ele>
        <time>2017-03-15T15:41:50Z</time>
      </trkpt>
      <trkpt lat="43.98051" lon="5.89512">
        <ele>513.48</ele>
        <time>2017-03-15T15:42:03Z</time>
      </trkpt>
      <trkpt lat="43.98042" lon="5.89518">
        <ele>515.4</ele>
        <time>2017-03-15T15:42:18Z</time>
      </trkpt>
      <trkpt lat="43.98035" lon="5.89512">
        <ele>516.85</ele>
        <time>2017-03-15T15:42:31Z</time>
      </trkpt>
      <trkpt lat="43.98026" lon="5.89509">
        <ele>517.81</ele>
        <time>2017-03-15T15:42:39Z</time>
      </trkpt>
      <trkpt lat="43.98017" lon="5.89507">
        <ele>519.25</ele>
        <time>2017-03-15T15:42:51Z</time>
      </trkpt>
      <trkpt lat="43.98008" lon="5.89505">
        <ele>520.21</ele>
        <time>2017-03-15T15:43:04Z</time>
      </trkpt>
      <trkpt lat="43.97997" lon="5.89506">
        <ele>520.69</ele>
        <time>2017-03-15T15:43:18Z</time>
      </trkpt>
      <trkpt lat="43.97988" lon="5.89506">
        <ele>521.17</ele>
        <time>2017-03-15T15:43:35Z</time>
      </trkpt>
      <trkpt lat="43.97984" lon="5.89504">
        <ele>521.65</ele>
        <time>2017-03-15T15:44:01Z</time>
      </trkpt>
      <trkpt lat="43.97981" lon="5.89503">
        <ele>522.13</ele>
        <time>2017-03-15T15:44:16Z</time>
      </trkpt>
      <trkpt lat="43.97974" lon="5.89502">
        <ele>523.58</ele>
        <time>2017-03-15T15:44:38Z</time>
      </trkpt>
      <trkpt lat="43.97969" lon="5.89515">
        <ele>523.58</ele>
        <time>2017-03-15T15:44:53Z</time>
      </trkpt>
      <trkpt lat="43.9797" lon="5.89525">
        <ele>525.5</ele>
        <time>2017-03-15T15:45:02Z</time>
      </trkpt>
      <trkpt lat="43.97968" lon="5.89539">
        <ele>525.5</ele>
        <time>2017-03-15T15:45:14Z</time>
      </trkpt>
      <trkpt lat="43.97967" lon="5.89542">
        <ele>525.5</ele>
        <time>2017-03-15T15:45:17Z</time>
      </trkpt>
      <trkpt lat="43.97959" lon="5.89551">
        <ele>525.98</ele>
        <time>2017-03-15T15:45:31Z</time>
      </trkpt>
      <trkpt lat="43.9795" lon="5.89551">
        <ele>525.98</ele>
        <time>2017-03-15T15:45:41Z</time>
      </trkpt>
      <trkpt lat="43.97943" lon="5.89551">
        <ele>525.98</ele>
        <time>2017-03-15T15:45:48Z</time>
      </trkpt>
      <trkpt lat="43.97942" lon="5.89551">
        <ele>525.98</ele>
        <time>2017-03-15T15:45:49Z</time>
      </trkpt>
      <trkpt lat="43.97941" lon="5.89551">
        <ele>525.98</ele>
        <time>2017-03-15T15:45:50Z</time>
      </trkpt>
      <trkpt lat="43.9794" lon="5.89552">
        <ele>525.98</ele>
        <time>2017-03-15T15:45:51Z</time>
      </trkpt>
      <trkpt lat="43.97935" lon="5.89556">
        <ele>525.98</ele>
        <time>2017-03-15T15:46:00Z</time>
      </trkpt>
      <trkpt lat="43.97934" lon="5.89558">
        <ele>525.98</ele>
        <time>2017-03-15T15:46:01Z</time>
      </trkpt>
      <trkpt lat="43.97934" lon="5.89559">
        <ele>525.98</ele>
        <time>2017-03-15T15:46:02Z</time>
      </trkpt>
      <trkpt lat="43.97932" lon="5.89563">
        <ele>525.98</ele>
        <time>2017-03-15T15:46:17Z</time>
      </trkpt>
      <trkpt lat="43.9793" lon="5.89563">
        <ele>524.54</ele>
        <time>2017-03-15T15:46:40Z</time>
      </trkpt>
      <trkpt lat="43.97928" lon="5.89569">
        <ele>524.54</ele>
        <time>2017-03-15T15:46:45Z</time>
      </trkpt>
      <trkpt lat="43.97927" lon="5.8957">
        <ele>524.54</ele>
        <time>2017-03-15T15:46:46Z</time>
      </trkpt>
      <trkpt lat="43.97923" lon="5.89583">
        <ele>524.54</ele>
        <time>2017-03-15T15:46:58Z</time>
      </trkpt>
      <trkpt lat="43.97923" lon="5.89585">
        <ele>524.54</ele>
        <time>2017-03-15T15:46:59Z</time>
      </trkpt>
      <trkpt lat="43.97924" lon="5.89588">
        <ele>524.54</ele>
        <time>2017-03-15T15:47:06Z</time>
      </trkpt>
      <trkpt lat="43.97924" lon="5.8959">
        <ele>524.54</ele>
        <time>2017-03-15T15:47:07Z</time>
      </trkpt>
      <trkpt lat="43.97923" lon="5.89591">
        <ele>524.54</ele>
        <time>2017-03-15T15:47:08Z</time>
      </trkpt>
      <trkpt lat="43.97922" lon="5.89596">
        <ele>524.54</ele>
        <time>2017-03-15T15:47:13Z</time>
      </trkpt>
      <trkpt lat="43.97921" lon="5.89597">
        <ele>524.54</ele>
        <time>2017-03-15T15:47:14Z</time>
      </trkpt>
      <trkpt lat="43.97921" lon="5.896">
        <ele>524.54</ele>
        <time>2017-03-15T15:47:15Z</time>
      </trkpt>
      <trkpt lat="43.97921" lon="5.89602">
        <ele>524.54</ele>
        <time>2017-03-15T15:47:16Z</time>
      </trkpt>
      <trkpt lat="43.97921" lon="5.89605">
        <ele>524.54</ele>
        <time>2017-03-15T15:47:17Z</time>
      </trkpt>
      <trkpt lat="43.97921" lon="5.89607">
        <ele>524.54</ele>
        <time>2017-03-15T15:47:18Z</time>
      </trkpt>
      <trkpt lat="43.97921" lon="5.8961">
        <ele>524.54</ele>
        <time>2017-03-15T15:47:19Z</time>
      </trkpt>
      <trkpt lat="43.9792" lon="5.89612">
        <ele>524.54</ele>
        <time>2017-03-15T15:47:20Z</time>
      </trkpt>
      <trkpt lat="43.9792" lon="5.89615">
        <ele>524.54</ele>
        <time>2017-03-15T15:47:21Z</time>
      </trkpt>
      <trkpt lat="43.97919" lon="5.89617">
        <ele>524.54</ele>
        <time>2017-03-15T15:47:22Z</time>
      </trkpt>
      <trkpt lat="43.97919" lon="5.89619">
        <ele>524.54</ele>
        <time>2017-03-15T15:47:23Z</time>
      </trkpt>
      <trkpt lat="43.97915" lon="5.89626">
        <ele>523.58</ele>
        <time>2017-03-15T15:47:34Z</time>
      </trkpt>
      <trkpt lat="43.97913" lon="5.89635">
        <ele>522.13</ele>
        <time>2017-03-15T15:47:46Z</time>
      </trkpt>
      <trkpt lat="43.97912" lon="5.89637">
        <ele>521.65</ele>
        <time>2017-03-15T15:47:48Z</time>
      </trkpt>
      <trkpt lat="43.9791" lon="5.89639">
        <ele>521.65</ele>
        <time>2017-03-15T15:47:50Z</time>
      </trkpt>
      <trkpt lat="43.97904" lon="5.89641">
        <ele>520.69</ele>
        <time>2017-03-15T15:47:55Z</time>
      </trkpt>
      <trkpt lat="43.97902" lon="5.89641">
        <ele>520.69</ele>
        <time>2017-03-15T15:47:56Z</time>
      </trkpt>
      <trkpt lat="43.97892" lon="5.89642">
        <ele>520.21</ele>
        <time>2017-03-15T15:48:09Z</time>
      </trkpt>
      <trkpt lat="43.97884" lon="5.89641">
        <ele>520.21</ele>
        <time>2017-03-15T15:48:15Z</time>
      </trkpt>
      <trkpt lat="43.97882" lon="5.8964">
        <ele>520.21</ele>
        <time>2017-03-15T15:48:16Z</time>
      </trkpt>
      <trkpt lat="43.97881" lon="5.89639">
        <ele>520.21</ele>
        <time>2017-03-15T15:48:17Z</time>
      </trkpt>
      <trkpt lat="43.97867" lon="5.89629">
        <ele>520.21</ele>
        <time>2017-03-15T15:48:31Z</time>
      </trkpt>
      <trkpt lat="43.97857" lon="5.89615">
        <ele>521.65</ele>
        <time>2017-03-15T15:48:43Z</time>
      </trkpt>
      <trkpt lat="43.97845" lon="5.89605">
        <ele>523.09</ele>
        <time>2017-03-15T15:48:58Z</time>
      </trkpt>
      <trkpt lat="43.97841" lon="5.89604">
        <ele>523.09</ele>
        <time>2017-03-15T15:49:01Z</time>
      </trkpt>
      <trkpt lat="43.9784" lon="5.89603">
        <ele>523.09</ele>
        <time>2017-03-15T15:49:02Z</time>
      </trkpt>
      <trkpt lat="43.97834" lon="5.89602">
        <ele>523.09</ele>
        <time>2017-03-15T15:49:08Z</time>
      </trkpt>
      <trkpt lat="43.97815" lon="5.89604">
        <ele>524.06</ele>
        <time>2017-03-15T15:49:25Z</time>
      </trkpt>
      <trkpt lat="43.97809" lon="5.89605">
        <ele>524.06</ele>
        <time>2017-03-15T15:49:30Z</time>
      </trkpt>
      <trkpt lat="43.978" lon="5.89613">
        <ele>523.09</ele>
        <time>2017-03-15T15:49:41Z</time>
      </trkpt>
      <trkpt lat="43.97791" lon="5.89613">
        <ele>523.09</ele>
        <time>2017-03-15T15:49:51Z</time>
      </trkpt>
      <trkpt lat="43.97788" lon="5.89612">
        <ele>522.61</ele>
        <time>2017-03-15T15:49:53Z</time>
      </trkpt>
      <trkpt lat="43.97771" lon="5.89604">
        <ele>521.17</ele>
        <time>2017-03-15T15:50:06Z</time>
      </trkpt>
      <trkpt lat="43.97767" lon="5.89599">
        <ele>520.21</ele>
        <time>2017-03-15T15:50:18Z</time>
      </trkpt>
      <trkpt lat="43.97766" lon="5.89597">
        <ele>520.21</ele>
        <time>2017-03-15T15:50:20Z</time>
      </trkpt>
      <trkpt lat="43.97764" lon="5.89593">
        <ele>520.21</ele>
        <time>2017-03-15T15:50:24Z</time>
      </trkpt>
      <trkpt lat="43.9775" lon="5.89583">
        <ele>520.21</ele>
        <time>2017-03-15T15:50:37Z</time>
      </trkpt>
      <trkpt lat="43.97744" lon="5.8958">
        <ele>520.21</ele>
        <time>2017-03-15T15:50:45Z</time>
      </trkpt>
      <trkpt lat="43.9772" lon="5.89579">
        <ele>521.65</ele>
        <time>2017-03-15T15:51:01Z</time>
      </trkpt>
      <trkpt lat="43.97708" lon="5.89579">
        <ele>522.13</ele>
        <time>2017-03-15T15:51:15Z</time>
      </trkpt>
      <trkpt lat="43.97704" lon="5.89578">
        <ele>522.61</ele>
        <time>2017-03-15T15:51:18Z</time>
      </trkpt>
      <trkpt lat="43.97703" lon="5.89577">
        <ele>522.61</ele>
        <time>2017-03-15T15:51:19Z</time>
      </trkpt>
      <trkpt lat="43.97702" lon="5.89576">
        <ele>522.61</ele>
        <time>2017-03-15T15:51:20Z</time>
      </trkpt>
      <trkpt lat="43.977" lon="5.89575">
        <ele>522.61</ele>
        <time>2017-03-15T15:51:21Z</time>
      </trkpt>
      <trkpt lat="43.97699" lon="5.89575">
        <ele>522.61</ele>
        <time>2017-03-15T15:51:22Z</time>
      </trkpt>
      <trkpt lat="43.97681" lon="5.89569">
        <ele>523.09</ele>
        <time>2017-03-15T15:51:37Z</time>
      </trkpt>
      <trkpt lat="43.97674" lon="5.89565">
        <ele>523.58</ele>
        <time>2017-03-15T15:51:46Z</time>
      </trkpt>
      <trkpt lat="43.97672" lon="5.89566">
        <ele>523.58</ele>
        <time>2017-03-15T15:51:47Z</time>
      </trkpt>
      <trkpt lat="43.97671" lon="5.89566">
        <ele>523.58</ele>
        <time>2017-03-15T15:51:48Z</time>
      </trkpt>
      <trkpt lat="43.97664" lon="5.89567">
        <ele>523.58</ele>
        <time>2017-03-15T15:51:53Z</time>
      </trkpt>
      <trkpt lat="43.9766" lon="5.89565">
        <ele>522.13</ele>
        <time>2017-03-15T15:52:01Z</time>
      </trkpt>
      <trkpt lat="43.97659" lon="5.89566">
        <ele>522.13</ele>
        <time>2017-03-15T15:52:13Z</time>
      </trkpt>
      <trkpt lat="43.97657" lon="5.89565">
        <ele>522.13</ele>
        <time>2017-03-15T15:52:37Z</time>
      </trkpt>
      <trkpt lat="43.97657" lon="5.89564">
        <ele>522.13</ele>
        <time>2017-03-15T15:52:53Z</time>
      </trkpt>
      <trkpt lat="43.97648" lon="5.89556">
        <ele>521.65</ele>
        <time>2017-03-15T15:53:05Z</time>
      </trkpt>
      <trkpt lat="43.9764" lon="5.89553">
        <ele>519.73</ele>
        <time>2017-03-15T15:53:18Z</time>
      </trkpt>
      <trkpt lat="43.97633" lon="5.89549">
        <ele>519.25</ele>
        <time>2017-03-15T15:53:26Z</time>
      </trkpt>
      <trkpt lat="43.97628" lon="5.89548">
        <ele>517.81</ele>
        <time>2017-03-15T15:53:32Z</time>
      </trkpt>
      <trkpt lat="43.97625" lon="5.89545">
        <ele>516.85</ele>
        <time>2017-03-15T15:53:41Z</time>
      </trkpt>
      <trkpt lat="43.97622" lon="5.89543">
        <ele>516.85</ele>
        <time>2017-03-15T15:53:43Z</time>
      </trkpt>
      <trkpt lat="43.97616" lon="5.8954">
        <ele>516.37</ele>
        <time>2017-03-15T15:53:48Z</time>
      </trkpt>
      <trkpt lat="43.97597" lon="5.89526">
        <ele>515.88</ele>
        <time>2017-03-15T15:53:59Z</time>
      </trkpt>
      <trkpt lat="43.97588" lon="5.89523">
        <ele>514.92</ele>
        <time>2017-03-15T15:54:11Z</time>
      </trkpt>
      <trkpt lat="43.97584" lon="5.89518">
        <ele>514.44</ele>
        <time>2017-03-15T15:54:15Z</time>
      </trkpt>
      <trkpt lat="43.97583" lon="5.89517">
        <ele>514.44</ele>
        <time>2017-03-15T15:54:16Z</time>
      </trkpt>
      <trkpt lat="43.97582" lon="5.89516">
        <ele>514.44</ele>
        <time>2017-03-15T15:54:17Z</time>
      </trkpt>
      <trkpt lat="43.97581" lon="5.89514">
        <ele>514.44</ele>
        <time>2017-03-15T15:54:18Z</time>
      </trkpt>
      <trkpt lat="43.97579" lon="5.89513">
        <ele>514.44</ele>
        <time>2017-03-15T15:54:19Z</time>
      </trkpt>
      <trkpt lat="43.97579" lon="5.89511">
        <ele>514.44</ele>
        <time>2017-03-15T15:54:20Z</time>
      </trkpt>
      <trkpt lat="43.97578" lon="5.8951">
        <ele>514.44</ele>
        <time>2017-03-15T15:54:21Z</time>
      </trkpt>
      <trkpt lat="43.97576" lon="5.89508">
        <ele>514.44</ele>
        <time>2017-03-15T15:54:22Z</time>
      </trkpt>
      <trkpt lat="43.97575" lon="5.89507">
        <ele>514.44</ele>
        <time>2017-03-15T15:54:23Z</time>
      </trkpt>
      <trkpt lat="43.97575" lon="5.89505">
        <ele>513.96</ele>
        <time>2017-03-15T15:54:24Z</time>
      </trkpt>
      <trkpt lat="43.97567" lon="5.89497">
        <ele>513.96</ele>
        <time>2017-03-15T15:54:37Z</time>
      </trkpt>
      <trkpt lat="43.97551" lon="5.89483">
        <ele>513.48</ele>
        <time>2017-03-15T15:54:49Z</time>
      </trkpt>
      <trkpt lat="43.97544" lon="5.89478">
        <ele>513.48</ele>
        <time>2017-03-15T15:54:59Z</time>
      </trkpt>
      <trkpt lat="43.97541" lon="5.89474">
        <ele>513.48</ele>
        <time>2017-03-15T15:55:02Z</time>
      </trkpt>
      <trkpt lat="43.9754" lon="5.89473">
        <ele>513.48</ele>
        <time>2017-03-15T15:55:04Z</time>
      </trkpt>
      <trkpt lat="43.97527" lon="5.89462">
        <ele>513.48</ele>
        <time>2017-03-15T15:55:18Z</time>
      </trkpt>
      <trkpt lat="43.97522" lon="5.89457">
        <ele>513</ele>
        <time>2017-03-15T15:55:24Z</time>
      </trkpt>
      <trkpt lat="43.97521" lon="5.89456">
        <ele>512.52</ele>
        <time>2017-03-15T15:55:25Z</time>
      </trkpt>
      <trkpt lat="43.9752" lon="5.89454">
        <ele>512.52</ele>
        <time>2017-03-15T15:55:26Z</time>
      </trkpt>
      <trkpt lat="43.97518" lon="5.89453">
        <ele>512.52</ele>
        <time>2017-03-15T15:55:27Z</time>
      </trkpt>
      <trkpt lat="43.97517" lon="5.89452">
        <ele>512.04</ele>
        <time>2017-03-15T15:55:28Z</time>
      </trkpt>
      <trkpt lat="43.9751" lon="5.89443">
        <ele>511.56</ele>
        <time>2017-03-15T15:55:39Z</time>
      </trkpt>
      <trkpt lat="43.97509" lon="5.89442">
        <ele>511.56</ele>
        <time>2017-03-15T15:55:41Z</time>
      </trkpt>
      <trkpt lat="43.97508" lon="5.8944">
        <ele>511.08</ele>
        <time>2017-03-15T15:55:42Z</time>
      </trkpt>
      <trkpt lat="43.975" lon="5.89429">
        <ele>510.6</ele>
        <time>2017-03-15T15:55:53Z</time>
      </trkpt>
      <trkpt lat="43.97498" lon="5.89427">
        <ele>510.6</ele>
        <time>2017-03-15T15:55:55Z</time>
      </trkpt>
      <trkpt lat="43.97493" lon="5.89417">
        <ele>510.12</ele>
        <time>2017-03-15T15:56:07Z</time>
      </trkpt>
      <trkpt lat="43.9749" lon="5.89412">
        <ele>510.12</ele>
        <time>2017-03-15T15:56:11Z</time>
      </trkpt>
      <trkpt lat="43.97489" lon="5.89411">
        <ele>510.12</ele>
        <time>2017-03-15T15:56:12Z</time>
      </trkpt>
      <trkpt lat="43.97484" lon="5.89395">
        <ele>509.64</ele>
        <time>2017-03-15T15:56:27Z</time>
      </trkpt>
      <trkpt lat="43.9748" lon="5.89381">
        <ele>509.64</ele>
        <time>2017-03-15T15:56:39Z</time>
      </trkpt>
      <trkpt lat="43.97477" lon="5.89374">
        <ele>509.64</ele>
        <time>2017-03-15T15:56:44Z</time>
      </trkpt>
      <trkpt lat="43.97475" lon="5.89364">
        <ele>509.64</ele>
        <time>2017-03-15T15:56:54Z</time>
      </trkpt>
      <trkpt lat="43.97474" lon="5.89362">
        <ele>509.64</ele>
        <time>2017-03-15T15:56:55Z</time>
      </trkpt>
      <trkpt lat="43.97474" lon="5.89359">
        <ele>509.64</ele>
        <time>2017-03-15T15:56:56Z</time>
      </trkpt>
      <trkpt lat="43.97472" lon="5.89356">
        <ele>509.64</ele>
        <time>2017-03-15T15:56:58Z</time>
      </trkpt>
      <trkpt lat="43.97465" lon="5.89342">
        <ele>509.64</ele>
        <time>2017-03-15T15:57:11Z</time>
      </trkpt>
      <trkpt lat="43.97457" lon="5.89327">
        <ele>508.67</ele>
        <time>2017-03-15T15:57:24Z</time>
      </trkpt>
      <trkpt lat="43.97446" lon="5.89313">
        <ele>508.67</ele>
        <time>2017-03-15T15:57:37Z</time>
      </trkpt>
      <trkpt lat="43.97438" lon="5.89301">
        <ele>508.19</ele>
        <time>2017-03-15T15:57:51Z</time>
      </trkpt>
      <trkpt lat="43.97428" lon="5.89293">
        <ele>508.19</ele>
        <time>2017-03-15T15:58:03Z</time>
      </trkpt>
      <trkpt lat="43.97418" lon="5.89287">
        <ele>508.19</ele>
        <time>2017-03-15T15:58:16Z</time>
      </trkpt>
      <trkpt lat="43.97416" lon="5.89284">
        <ele>508.19</ele>
        <time>2017-03-15T15:58:31Z</time>
      </trkpt>
      <trkpt lat="43.97415" lon="5.89284">
        <ele>508.19</ele>
        <time>2017-03-15T15:58:48Z</time>
      </trkpt>
      <trkpt lat="43.97412" lon="5.89284">
        <ele>508.19</ele>
        <time>2017-03-15T15:59:15Z</time>
      </trkpt>
      <trkpt lat="43.97406" lon="5.89281">
        <ele>508.19</ele>
        <time>2017-03-15T15:59:33Z</time>
      </trkpt>
      <trkpt lat="43.97396" lon="5.89275">
        <ele>509.64</ele>
        <time>2017-03-15T15:59:47Z</time>
      </trkpt>
      <trkpt lat="43.97385" lon="5.89263">
        <ele>510.12</ele>
        <time>2017-03-15T16:00:03Z</time>
      </trkpt>
      <trkpt lat="43.9737" lon="5.89252">
        <ele>510.6</ele>
        <time>2017-03-15T16:00:19Z</time>
      </trkpt>
      <trkpt lat="43.97364" lon="5.89248">
        <ele>511.08</ele>
        <time>2017-03-15T16:00:31Z</time>
      </trkpt>
      <trkpt lat="43.97357" lon="5.89244">
        <ele>509.64</ele>
        <time>2017-03-15T16:00:42Z</time>
      </trkpt>
      <trkpt lat="43.9735" lon="5.89244">
        <ele>509.64</ele>
        <time>2017-03-15T16:00:55Z</time>
      </trkpt>
      <trkpt lat="43.97353" lon="5.89243">
        <ele>509.64</ele>
        <time>2017-03-15T16:01:23Z</time>
      </trkpt>
      <trkpt lat="43.97351" lon="5.89242">
        <ele>509.64</ele>
        <time>2017-03-15T16:01:51Z</time>
      </trkpt>
      <trkpt lat="43.97348" lon="5.89243">
        <ele>509.64</ele>
        <time>2017-03-15T16:02:21Z</time>
      </trkpt>
      <trkpt lat="43.97345" lon="5.89242">
        <ele>509.64</ele>
        <time>2017-03-15T16:02:38Z</time>
      </trkpt>
      <trkpt lat="43.97343" lon="5.89241">
        <ele>509.64</ele>
        <time>2017-03-15T16:02:41Z</time>
      </trkpt>
      <trkpt lat="43.97338" lon="5.89239">
        <ele>509.64</ele>
        <time>2017-03-15T16:02:47Z</time>
      </trkpt>
      <trkpt lat="43.97337" lon="5.89239">
        <ele>509.64</ele>
        <time>2017-03-15T16:02:48Z</time>
      </trkpt>
      <trkpt lat="43.97335" lon="5.89238">
        <ele>509.64</ele>
        <time>2017-03-15T16:02:49Z</time>
      </trkpt>
      <trkpt lat="43.97333" lon="5.89238">
        <ele>509.64</ele>
        <time>2017-03-15T16:02:50Z</time>
      </trkpt>
      <trkpt lat="43.97332" lon="5.89238">
        <ele>509.64</ele>
        <time>2017-03-15T16:02:51Z</time>
      </trkpt>
      <trkpt lat="43.97327" lon="5.89234">
        <ele>509.64</ele>
        <time>2017-03-15T16:02:59Z</time>
      </trkpt>
      <trkpt lat="43.97326" lon="5.89233">
        <ele>509.64</ele>
        <time>2017-03-15T16:03:00Z</time>
      </trkpt>
      <trkpt lat="43.97325" lon="5.89231">
        <ele>509.64</ele>
        <time>2017-03-15T16:03:01Z</time>
      </trkpt>
      <trkpt lat="43.97319" lon="5.89228">
        <ele>509.64</ele>
        <time>2017-03-15T16:03:10Z</time>
      </trkpt>
      <trkpt lat="43.97309" lon="5.89222">
        <ele>509.64</ele>
        <time>2017-03-15T16:03:23Z</time>
      </trkpt>
      <trkpt lat="43.97297" lon="5.89215">
        <ele>511.08</ele>
        <time>2017-03-15T16:03:38Z</time>
      </trkpt>
      <trkpt lat="43.97285" lon="5.8921">
        <ele>512.04</ele>
        <time>2017-03-15T16:03:52Z</time>
      </trkpt>
      <trkpt lat="43.97281" lon="5.89207">
        <ele>512.04</ele>
        <time>2017-03-15T16:03:58Z</time>
      </trkpt>
      <trkpt lat="43.97269" lon="5.89206">
        <ele>512.04</ele>
        <time>2017-03-15T16:04:11Z</time>
      </trkpt>
      <trkpt lat="43.97263" lon="5.89204">
        <ele>512.04</ele>
        <time>2017-03-15T16:04:19Z</time>
      </trkpt>
      <trkpt lat="43.97254" lon="5.89203">
        <ele>512.52</ele>
        <time>2017-03-15T16:04:28Z</time>
      </trkpt>
      <trkpt lat="43.97252" lon="5.89202">
        <ele>512.52</ele>
        <time>2017-03-15T16:04:29Z</time>
      </trkpt>
      <trkpt lat="43.97251" lon="5.89202">
        <ele>512.52</ele>
        <time>2017-03-15T16:04:30Z</time>
      </trkpt>
      <trkpt lat="43.97249" lon="5.89202">
        <ele>512.52</ele>
        <time>2017-03-15T16:04:31Z</time>
      </trkpt>
      <trkpt lat="43.97248" lon="5.89201">
        <ele>512.52</ele>
        <time>2017-03-15T16:04:32Z</time>
      </trkpt>
      <trkpt lat="43.97236" lon="5.89199">
        <ele>513</ele>
        <time>2017-03-15T16:04:44Z</time>
      </trkpt>
      <trkpt lat="43.9723" lon="5.89199">
        <ele>513</ele>
        <time>2017-03-15T16:04:51Z</time>
      </trkpt>
      <trkpt lat="43.97228" lon="5.89198">
        <ele>513</ele>
        <time>2017-03-15T16:04:52Z</time>
      </trkpt>
      <trkpt lat="43.97227" lon="5.89198">
        <ele>513</ele>
        <time>2017-03-15T16:04:53Z</time>
      </trkpt>
      <trkpt lat="43.97224" lon="5.89198">
        <ele>513</ele>
        <time>2017-03-15T16:04:58Z</time>
      </trkpt>
      <trkpt lat="43.97222" lon="5.89197">
        <ele>513</ele>
        <time>2017-03-15T16:04:59Z</time>
      </trkpt>
      <trkpt lat="43.9721" lon="5.89193">
        <ele>513.96</ele>
        <time>2017-03-15T16:05:11Z</time>
      </trkpt>
      <trkpt lat="43.97199" lon="5.89189">
        <ele>513.96</ele>
        <time>2017-03-15T16:05:23Z</time>
      </trkpt>
      <trkpt lat="43.97189" lon="5.89183">
        <ele>515.4</ele>
        <time>2017-03-15T16:05:37Z</time>
      </trkpt>
      <trkpt lat="43.9718" lon="5.89178">
        <ele>516.37</ele>
        <time>2017-03-15T16:05:51Z</time>
      </trkpt>
      <trkpt lat="43.97171" lon="5.89174">
        <ele>516.85</ele>
        <time>2017-03-15T16:06:02Z</time>
      </trkpt>
      <trkpt lat="43.97156" lon="5.89171">
        <ele>518.29</ele>
        <time>2017-03-15T16:06:18Z</time>
      </trkpt>
      <trkpt lat="43.97144" lon="5.89167">
        <ele>520.21</ele>
        <time>2017-03-15T16:06:33Z</time>
      </trkpt>
      <trkpt lat="43.97135" lon="5.89159">
        <ele>521.65</ele>
        <time>2017-03-15T16:06:47Z</time>
      </trkpt>
      <trkpt lat="43.97128" lon="5.89148">
        <ele>524.06</ele>
        <time>2017-03-15T16:07:00Z</time>
      </trkpt>
      <trkpt lat="43.97119" lon="5.8914">
        <ele>525.5</ele>
        <time>2017-03-15T16:07:14Z</time>
      </trkpt>
      <trkpt lat="43.97111" lon="5.89133">
        <ele>526.94</ele>
        <time>2017-03-15T16:07:27Z</time>
      </trkpt>
      <trkpt lat="43.97094" lon="5.89124">
        <ele>529.34</ele>
        <time>2017-03-15T16:07:45Z</time>
      </trkpt>
      <trkpt lat="43.97076" lon="5.89124">
        <ele>531.27</ele>
        <time>2017-03-15T16:08:06Z</time>
      </trkpt>
      <trkpt lat="43.9706" lon="5.8913">
        <ele>533.19</ele>
        <time>2017-03-15T16:08:25Z</time>
      </trkpt>
      <trkpt lat="43.97041" lon="5.89131">
        <ele>534.15</ele>
        <time>2017-03-15T16:08:45Z</time>
      </trkpt>
      <trkpt lat="43.97035" lon="5.89129">
        <ele>534.63</ele>
        <time>2017-03-15T16:09:04Z</time>
      </trkpt>
      <trkpt lat="43.97023" lon="5.89129">
        <ele>536.07</ele>
        <time>2017-03-15T16:09:20Z</time>
      </trkpt>
      <trkpt lat="43.97009" lon="5.89117">
        <ele>537.99</ele>
        <time>2017-03-15T16:09:41Z</time>
      </trkpt>
      <trkpt lat="43.96997" lon="5.89107">
        <ele>540.88</ele>
        <time>2017-03-15T16:09:59Z</time>
      </trkpt>
      <trkpt lat="43.96982" lon="5.89102">
        <ele>542.8</ele>
        <time>2017-03-15T16:10:17Z</time>
      </trkpt>
      <trkpt lat="43.96967" lon="5.89096">
        <ele>545.2</ele>
        <time>2017-03-15T16:10:36Z</time>
      </trkpt>
      <trkpt lat="43.96961" lon="5.89094">
        <ele>546.65</ele>
        <time>2017-03-15T16:10:50Z</time>
      </trkpt>
      <trkpt lat="43.96952" lon="5.89089">
        <ele>548.09</ele>
        <time>2017-03-15T16:11:06Z</time>
      </trkpt>
      <trkpt lat="43.96943" lon="5.89082">
        <ele>550.01</ele>
        <time>2017-03-15T16:11:22Z</time>
      </trkpt>
      <trkpt lat="43.96933" lon="5.89073">
        <ele>552.41</ele>
        <time>2017-03-15T16:11:40Z</time>
      </trkpt>
      <trkpt lat="43.96923" lon="5.89069">
        <ele>554.34</ele>
        <time>2017-03-15T16:11:57Z</time>
      </trkpt>
      <trkpt lat="43.96911" lon="5.89063">
        <ele>557.22</ele>
        <time>2017-03-15T16:12:18Z</time>
      </trkpt>
      <trkpt lat="43.96912" lon="5.89064">
        <ele>557.22</ele>
        <time>2017-03-15T16:12:43Z</time>
      </trkpt>
      <trkpt lat="43.96911" lon="5.89061">
        <ele>557.7</ele>
        <time>2017-03-15T16:13:15Z</time>
      </trkpt>
      <trkpt lat="43.96903" lon="5.89053">
        <ele>560.11</ele>
        <time>2017-03-15T16:13:30Z</time>
      </trkpt>
      <trkpt lat="43.96903" lon="5.89051">
        <ele>560.59</ele>
        <time>2017-03-15T16:13:52Z</time>
      </trkpt>
      <trkpt lat="43.96897" lon="5.89045">
        <ele>562.03</ele>
        <time>2017-03-15T16:14:16Z</time>
      </trkpt>
      <trkpt lat="43.96891" lon="5.89036">
        <ele>563.95</ele>
        <time>2017-03-15T16:14:32Z</time>
      </trkpt>
      <trkpt lat="43.96884" lon="5.89026">
        <ele>566.35</ele>
        <time>2017-03-15T16:14:49Z</time>
      </trkpt>
      <trkpt lat="43.96884" lon="5.89021">
        <ele>567.8</ele>
        <time>2017-03-15T16:15:05Z</time>
      </trkpt>
      <trkpt lat="43.96894" lon="5.89027">
        <ele>568.76</ele>
        <time>2017-03-15T16:15:20Z</time>
      </trkpt>
      <trkpt lat="43.96898" lon="5.89018">
        <ele>569.72</ele>
        <time>2017-03-15T16:15:33Z</time>
      </trkpt>
      <trkpt lat="43.96893" lon="5.89011">
        <ele>570.68</ele>
        <time>2017-03-15T16:15:51Z</time>
      </trkpt>
      <trkpt lat="43.96878" lon="5.89001">
        <ele>572.6</ele>
        <time>2017-03-15T16:16:09Z</time>
      </trkpt>
      <trkpt lat="43.9686" lon="5.88987">
        <ele>573.08</ele>
        <time>2017-03-15T16:16:31Z</time>
      </trkpt>
      <trkpt lat="43.96861" lon="5.88985">
        <ele>573.56</ele>
        <time>2017-03-15T16:16:44Z</time>
      </trkpt>
      <trkpt lat="43.96863" lon="5.88977">
        <ele>573.56</ele>
        <time>2017-03-15T16:17:01Z</time>
      </trkpt>
      <trkpt lat="43.96861" lon="5.88961">
        <ele>573.56</ele>
        <time>2017-03-15T16:17:17Z</time>
      </trkpt>
      <trkpt lat="43.9686" lon="5.88958">
        <ele>572.6</ele>
        <time>2017-03-15T16:17:20Z</time>
      </trkpt>
      <trkpt lat="43.96853" lon="5.88949">
        <ele>571.64</ele>
        <time>2017-03-15T16:17:32Z</time>
      </trkpt>
      <trkpt lat="43.96845" lon="5.88936">
        <ele>570.68</ele>
        <time>2017-03-15T16:17:46Z</time>
      </trkpt>
      <trkpt lat="43.96832" lon="5.88921">
        <ele>569.24</ele>
        <time>2017-03-15T16:18:02Z</time>
      </trkpt>
      <trkpt lat="43.96823" lon="5.88909">
        <ele>568.76</ele>
        <time>2017-03-15T16:18:15Z</time>
      </trkpt>
      <trkpt lat="43.96807" lon="5.88891">
        <ele>568.28</ele>
        <time>2017-03-15T16:18:34Z</time>
      </trkpt>
      <trkpt lat="43.96799" lon="5.88886">
        <ele>568.28</ele>
        <time>2017-03-15T16:18:54Z</time>
      </trkpt>
      <trkpt lat="43.96784" lon="5.88876">
        <ele>567.32</ele>
        <time>2017-03-15T16:19:12Z</time>
      </trkpt>
      <trkpt lat="43.96781" lon="5.88875">
        <ele>567.32</ele>
        <time>2017-03-15T16:19:38Z</time>
      </trkpt>
      <trkpt lat="43.96776" lon="5.88875">
        <ele>566.83</ele>
        <time>2017-03-15T16:20:02Z</time>
      </trkpt>
      <trkpt lat="43.96759" lon="5.88865">
        <ele>564.43</ele>
        <time>2017-03-15T16:20:21Z</time>
      </trkpt>
      <trkpt lat="43.96751" lon="5.88858">
        <ele>562.99</ele>
        <time>2017-03-15T16:20:38Z</time>
      </trkpt>
      <trkpt lat="43.96754" lon="5.8886">
        <ele>562.99</ele>
        <time>2017-03-15T16:21:09Z</time>
      </trkpt>
      <trkpt lat="43.96745" lon="5.88856">
        <ele>562.99</ele>
        <time>2017-03-15T16:21:24Z</time>
      </trkpt>
      <trkpt lat="43.96727" lon="5.88839">
        <ele>562.03</ele>
        <time>2017-03-15T16:21:43Z</time>
      </trkpt>
      <trkpt lat="43.96712" lon="5.88826">
        <ele>562.03</ele>
        <time>2017-03-15T16:22:00Z</time>
      </trkpt>
      <trkpt lat="43.9671" lon="5.88826">
        <ele>562.03</ele>
        <time>2017-03-15T16:22:02Z</time>
      </trkpt>
      <trkpt lat="43.96689" lon="5.88806">
        <ele>561.55</ele>
        <time>2017-03-15T16:22:25Z</time>
      </trkpt>
      <trkpt lat="43.96675" lon="5.88789">
        <ele>560.59</ele>
        <time>2017-03-15T16:22:43Z</time>
      </trkpt>
      <trkpt lat="43.96664" lon="5.88773">
        <ele>560.59</ele>
        <time>2017-03-15T16:22:59Z</time>
      </trkpt>
      <trkpt lat="43.96659" lon="5.88767">
        <ele>562.03</ele>
        <time>2017-03-15T16:23:12Z</time>
      </trkpt>
      <trkpt lat="43.96661" lon="5.88768">
        <ele>562.03</ele>
        <time>2017-03-15T16:23:37Z</time>
      </trkpt>
      <trkpt lat="43.96658" lon="5.88763">
        <ele>562.03</ele>
        <time>2017-03-15T16:23:54Z</time>
      </trkpt>
      <trkpt lat="43.96649" lon="5.88752">
        <ele>563.47</ele>
        <time>2017-03-15T16:24:08Z</time>
      </trkpt>
      <trkpt lat="43.96644" lon="5.88744">
        <ele>563.95</ele>
        <time>2017-03-15T16:24:21Z</time>
      </trkpt>
      <trkpt lat="43.96641" lon="5.8873">
        <ele>564.43</ele>
        <time>2017-03-15T16:24:37Z</time>
      </trkpt>
      <trkpt lat="43.96641" lon="5.88729">
        <ele>565.39</ele>
        <time>2017-03-15T16:24:56Z</time>
      </trkpt>
      <trkpt lat="43.96635" lon="5.88727">
        <ele>565.87</ele>
        <time>2017-03-15T16:25:22Z</time>
      </trkpt>
      <trkpt lat="43.96627" lon="5.88719">
        <ele>566.83</ele>
        <time>2017-03-15T16:25:36Z</time>
      </trkpt>
      <trkpt lat="43.9662" lon="5.88719">
        <ele>567.8</ele>
        <time>2017-03-15T16:25:58Z</time>
      </trkpt>
      <trkpt lat="43.96617" lon="5.88718">
        <ele>567.8</ele>
        <time>2017-03-15T16:26:23Z</time>
      </trkpt>
      <trkpt lat="43.96611" lon="5.88722">
        <ele>568.28</ele>
        <time>2017-03-15T16:26:45Z</time>
      </trkpt>
      <trkpt lat="43.96611" lon="5.88723">
        <ele>568.28</ele>
        <time>2017-03-15T16:27:02Z</time>
      </trkpt>
      <trkpt lat="43.96609" lon="5.88724">
        <ele>568.28</ele>
        <time>2017-03-15T16:27:30Z</time>
      </trkpt>
      <trkpt lat="43.96607" lon="5.88716">
        <ele>568.28</ele>
        <time>2017-03-15T16:27:47Z</time>
      </trkpt>
      <trkpt lat="43.96609" lon="5.88721">
        <ele>568.28</ele>
        <time>2017-03-15T16:28:02Z</time>
      </trkpt>
      <trkpt lat="43.96609" lon="5.8872">
        <ele>568.28</ele>
        <time>2017-03-15T16:28:37Z</time>
      </trkpt>
      <trkpt lat="43.96601" lon="5.88711">
        <ele>568.76</ele>
        <time>2017-03-15T16:28:55Z</time>
      </trkpt>
      <trkpt lat="43.96596" lon="5.88707">
        <ele>568.76</ele>
        <time>2017-03-15T16:29:18Z</time>
      </trkpt>
      <trkpt lat="43.96598" lon="5.88708">
        <ele>568.76</ele>
        <time>2017-03-15T16:29:37Z</time>
      </trkpt>
      <trkpt lat="43.96605" lon="5.88714">
        <ele>568.76</ele>
        <time>2017-03-15T16:29:55Z</time>
      </trkpt>
      <trkpt lat="43.96608" lon="5.88723">
        <ele>568.76</ele>
        <time>2017-03-15T16:30:13Z</time>
      </trkpt>
      <trkpt lat="43.9661" lon="5.88728">
        <ele>568.76</ele>
        <time>2017-03-15T16:30:31Z</time>
      </trkpt>
      <trkpt lat="43.9661" lon="5.88728">
        <ele>568.76</ele>
        <time>2017-03-15T16:30:50Z</time>
      </trkpt>
      <trkpt lat="43.96611" lon="5.88729">
        <ele>568.76</ele>
        <time>2017-03-15T16:31:08Z</time>
      </trkpt>
      <trkpt lat="43.9661" lon="5.88728">
        <ele>568.76</ele>
        <time>2017-03-15T16:31:38Z</time>
      </trkpt>
      <trkpt lat="43.96611" lon="5.88728">
        <ele>568.76</ele>
        <time>2017-03-15T16:31:59Z</time>
      </trkpt>
      <trkpt lat="43.96608" lon="5.88727">
        <ele>568.76</ele>
        <time>2017-03-15T16:32:28Z</time>
      </trkpt>
      <trkpt lat="43.96612" lon="5.88719">
        <ele>568.76</ele>
        <time>2017-03-15T16:32:47Z</time>
      </trkpt>
      <trkpt lat="43.96608" lon="5.88714">
        <ele>568.76</ele>
        <time>2017-03-15T16:33:02Z</time>
      </trkpt>
      <trkpt lat="43.96609" lon="5.88713">
        <ele>568.76</ele>
        <time>2017-03-15T16:33:38Z</time>
      </trkpt>
      <trkpt lat="43.96603" lon="5.88709">
        <ele>568.76</ele>
        <time>2017-03-15T16:34:01Z</time>
      </trkpt>
      <trkpt lat="43.96596" lon="5.88704">
        <ele>568.76</ele>
        <time>2017-03-15T16:34:16Z</time>
      </trkpt>
      <trkpt lat="43.96589" lon="5.88698">
        <ele>568.76</ele>
        <time>2017-03-15T16:34:31Z</time>
      </trkpt>
      <trkpt lat="43.96582" lon="5.88693">
        <ele>568.76</ele>
        <time>2017-03-15T16:34:49Z</time>
      </trkpt>
      <trkpt lat="43.96578" lon="5.88695">
        <ele>568.76</ele>
        <time>2017-03-15T16:35:04Z</time>
      </trkpt>
      <trkpt lat="43.9658" lon="5.88695">
        <ele>568.76</ele>
        <time>2017-03-15T16:35:27Z</time>
      </trkpt>
      <trkpt lat="43.96581" lon="5.88702">
        <ele>568.76</ele>
        <time>2017-03-15T16:35:43Z</time>
      </trkpt>
      <trkpt lat="43.96582" lon="5.88704">
        <ele>568.76</ele>
        <time>2017-03-15T16:35:59Z</time>
      </trkpt>
      <trkpt lat="43.96586" lon="5.88706">
        <ele>568.76</ele>
        <time>2017-03-15T16:36:26Z</time>
      </trkpt>
      <trkpt lat="43.96587" lon="5.88708">
        <ele>568.76</ele>
        <time>2017-03-15T16:36:46Z</time>
      </trkpt>
      <trkpt lat="43.96585" lon="5.88709">
        <ele>568.76</ele>
        <time>2017-03-15T16:37:12Z</time>
      </trkpt>
      <trkpt lat="43.96588" lon="5.88713">
        <ele>568.76</ele>
        <time>2017-03-15T16:37:32Z</time>
      </trkpt>
      <trkpt lat="43.96594" lon="5.88717">
        <ele>568.76</ele>
        <time>2017-03-15T16:37:50Z</time>
      </trkpt>
      <trkpt lat="43.96597" lon="5.88723">
        <ele>568.76</ele>
        <time>2017-03-15T16:38:06Z</time>
      </trkpt>
      <trkpt lat="43.96595" lon="5.88723">
        <ele>568.76</ele>
        <time>2017-03-15T16:38:24Z</time>
      </trkpt>
      <trkpt lat="43.96603" lon="5.88727">
        <ele>568.76</ele>
        <time>2017-03-15T16:38:45Z</time>
      </trkpt>
      <trkpt lat="43.96605" lon="5.88727">
        <ele>568.76</ele>
        <time>2017-03-15T16:39:03Z</time>
      </trkpt>
      <trkpt lat="43.96607" lon="5.8873">
        <ele>568.76</ele>
        <time>2017-03-15T16:39:25Z</time>
      </trkpt>
      <trkpt lat="43.96616" lon="5.88721">
        <ele>568.76</ele>
        <time>2017-03-15T16:39:40Z</time>
      </trkpt>
      <trkpt lat="43.96625" lon="5.8872">
        <ele>568.76</ele>
        <time>2017-03-15T16:39:56Z</time>
      </trkpt>
      <trkpt lat="43.96638" lon="5.88728">
        <ele>566.83</ele>
        <time>2017-03-15T16:40:15Z</time>
      </trkpt>
      <trkpt lat="43.96649" lon="5.8874">
        <ele>564.91</ele>
        <time>2017-03-15T16:40:35Z</time>
      </trkpt>
      <trkpt lat="43.96654" lon="5.88733">
        <ele>562.99</ele>
        <time>2017-03-15T16:40:49Z</time>
      </trkpt>
      <trkpt lat="43.9665" lon="5.88724">
        <ele>561.55</ele>
        <time>2017-03-15T16:41:03Z</time>
      </trkpt>
      <trkpt lat="43.96651" lon="5.88718">
        <ele>560.11</ele>
        <time>2017-03-15T16:41:20Z</time>
      </trkpt>
      <trkpt lat="43.96653" lon="5.8872">
        <ele>560.11</ele>
        <time>2017-03-15T16:41:42Z</time>
      </trkpt>
      <trkpt lat="43.96653" lon="5.8872">
        <ele>560.11</ele>
        <time>2017-03-15T16:41:49Z</time>
      </trkpt>
    </trkseg>
  </trk>
</gpx>